<?xml version="1.0" encoding="UTF-8" standalone="no" ?>
<gpx xmlns="http://www.topografix.com/GPX/1/1" xmlns:xsi="http://www.w3.org/2001/XMLSchema-instance" xsi:schemaLocation="http://www.topografix.com/GPX/1/1 http://www.topografix.com/GPX/1/1/gpx.xsd" version="1.1" creator="VisuGPX - https://www.visugpx.com">
  <metadata>
    <name>83 - M - Lorgues </name>
    <desc><![CDATA[83 - M - Lorgues : chapelles - canal 
2021-12-08]]></desc>
  </metadata>
  <trk>
    <name><![CDATA[Lorgues chapelles canal 2021-12-08-01]]></name>
    <extensions>
      <line xmlns="http://www.topografix.com/GPX/gpx_style/0/2">
        <width>4</width>
      </line>
    </extensions>
    <trkseg>
      <trkpt lat="43.48122" lon="6.32819">
        <ele>150.2</ele>
        <time>2021-12-08T12:46:37.000Z</time>
      </trkpt>
      <trkpt lat="43.48121" lon="6.32818">
        <ele>150.2</ele>
        <time>2021-12-08T12:46:38.000Z</time>
      </trkpt>
      <trkpt lat="43.48114" lon="6.32807">
        <ele>150.3</ele>
        <time>2021-12-08T12:46:46.000Z</time>
      </trkpt>
      <trkpt lat="43.48108" lon="6.32798">
        <ele>149.4</ele>
        <time>2021-12-08T12:46:55.000Z</time>
      </trkpt>
      <trkpt lat="43.48101" lon="6.32789">
        <ele>149</ele>
        <time>2021-12-08T12:47:05.000Z</time>
      </trkpt>
      <trkpt lat="43.48093" lon="6.32782">
        <ele>147.6</ele>
        <time>2021-12-08T12:47:14.000Z</time>
      </trkpt>
      <trkpt lat="43.48084" lon="6.32775">
        <ele>146.5</ele>
        <time>2021-12-08T12:47:22.000Z</time>
      </trkpt>
      <trkpt lat="43.4808" lon="6.32765">
        <ele>145.5</ele>
        <time>2021-12-08T12:47:28.000Z</time>
      </trkpt>
      <trkpt lat="43.48072" lon="6.32756">
        <ele>144.6</ele>
        <time>2021-12-08T12:47:36.000Z</time>
      </trkpt>
      <trkpt lat="43.48064" lon="6.32749">
        <ele>143.6</ele>
        <time>2021-12-08T12:47:45.000Z</time>
      </trkpt>
      <trkpt lat="43.48055" lon="6.32741">
        <ele>143.1</ele>
        <time>2021-12-08T12:47:50.000Z</time>
      </trkpt>
      <trkpt lat="43.48046" lon="6.32738">
        <ele>142.8</ele>
        <time>2021-12-08T12:47:55.000Z</time>
      </trkpt>
      <trkpt lat="43.48038" lon="6.32732">
        <ele>142.3</ele>
        <time>2021-12-08T12:48:01.000Z</time>
      </trkpt>
      <trkpt lat="43.48028" lon="6.32733">
        <ele>142</ele>
        <time>2021-12-08T12:48:09.000Z</time>
      </trkpt>
      <trkpt lat="43.48019" lon="6.32731">
        <ele>141.5</ele>
        <time>2021-12-08T12:48:15.000Z</time>
      </trkpt>
      <trkpt lat="43.48009" lon="6.3273">
        <ele>140.9</ele>
        <time>2021-12-08T12:48:24.000Z</time>
      </trkpt>
      <trkpt lat="43.47999" lon="6.32729">
        <ele>140.7</ele>
        <time>2021-12-08T12:48:35.000Z</time>
      </trkpt>
      <trkpt lat="43.4799" lon="6.32733">
        <ele>140.8</ele>
        <time>2021-12-08T12:48:44.000Z</time>
      </trkpt>
      <trkpt lat="43.4798" lon="6.32734">
        <ele>140.9</ele>
        <time>2021-12-08T12:48:50.000Z</time>
      </trkpt>
      <trkpt lat="43.4797" lon="6.32733">
        <ele>141.2</ele>
        <time>2021-12-08T12:48:57.000Z</time>
      </trkpt>
      <trkpt lat="43.4796" lon="6.32734">
        <ele>141.5</ele>
        <time>2021-12-08T12:49:05.000Z</time>
      </trkpt>
      <trkpt lat="43.4795" lon="6.32737">
        <ele>142.3</ele>
        <time>2021-12-08T12:49:13.000Z</time>
      </trkpt>
      <trkpt lat="43.47941" lon="6.32741">
        <ele>142.7</ele>
        <time>2021-12-08T12:49:20.000Z</time>
      </trkpt>
      <trkpt lat="43.47931" lon="6.32742">
        <ele>143.2</ele>
        <time>2021-12-08T12:49:26.000Z</time>
      </trkpt>
      <trkpt lat="43.47922" lon="6.32742">
        <ele>143.5</ele>
        <time>2021-12-08T12:49:33.000Z</time>
      </trkpt>
      <trkpt lat="43.47912" lon="6.32739">
        <ele>143</ele>
        <time>2021-12-08T12:49:41.000Z</time>
      </trkpt>
      <trkpt lat="43.47903" lon="6.32738">
        <ele>142.3</ele>
        <time>2021-12-08T12:49:49.000Z</time>
      </trkpt>
      <trkpt lat="43.47893" lon="6.32735">
        <ele>142.3</ele>
        <time>2021-12-08T12:49:56.000Z</time>
      </trkpt>
      <trkpt lat="43.47885" lon="6.32727">
        <ele>142.2</ele>
        <time>2021-12-08T12:50:03.000Z</time>
      </trkpt>
      <trkpt lat="43.47877" lon="6.3272">
        <ele>142.4</ele>
        <time>2021-12-08T12:50:12.000Z</time>
      </trkpt>
      <trkpt lat="43.47868" lon="6.32714">
        <ele>143</ele>
        <time>2021-12-08T12:50:20.000Z</time>
      </trkpt>
      <trkpt lat="43.4786" lon="6.32707">
        <ele>143.9</ele>
        <time>2021-12-08T12:50:28.000Z</time>
      </trkpt>
      <trkpt lat="43.47852" lon="6.327">
        <ele>144.4</ele>
        <time>2021-12-08T12:50:35.000Z</time>
      </trkpt>
      <trkpt lat="43.47845" lon="6.3269">
        <ele>144.3</ele>
        <time>2021-12-08T12:50:43.000Z</time>
      </trkpt>
      <trkpt lat="43.47838" lon="6.32681">
        <ele>144.4</ele>
        <time>2021-12-08T12:50:51.000Z</time>
      </trkpt>
      <trkpt lat="43.47832" lon="6.3267">
        <ele>144</ele>
        <time>2021-12-08T12:51:01.000Z</time>
      </trkpt>
      <trkpt lat="43.47826" lon="6.32661">
        <ele>142.7</ele>
        <time>2021-12-08T12:51:08.000Z</time>
      </trkpt>
      <trkpt lat="43.47821" lon="6.32648">
        <ele>141.8</ele>
        <time>2021-12-08T12:51:16.000Z</time>
      </trkpt>
      <trkpt lat="43.47816" lon="6.32637">
        <ele>140.7</ele>
        <time>2021-12-08T12:51:24.000Z</time>
      </trkpt>
      <trkpt lat="43.47811" lon="6.32626">
        <ele>139.6</ele>
        <time>2021-12-08T12:51:32.000Z</time>
      </trkpt>
      <trkpt lat="43.47806" lon="6.32616">
        <ele>138.4</ele>
        <time>2021-12-08T12:51:40.000Z</time>
      </trkpt>
      <trkpt lat="43.47801" lon="6.32605">
        <ele>137.5</ele>
        <time>2021-12-08T12:51:48.000Z</time>
      </trkpt>
      <trkpt lat="43.47796" lon="6.32595">
        <ele>136.7</ele>
        <time>2021-12-08T12:51:55.000Z</time>
      </trkpt>
      <trkpt lat="43.47792" lon="6.32583">
        <ele>135.8</ele>
        <time>2021-12-08T12:52:04.000Z</time>
      </trkpt>
      <trkpt lat="43.47789" lon="6.32572">
        <ele>134.8</ele>
        <time>2021-12-08T12:52:14.000Z</time>
      </trkpt>
      <trkpt lat="43.47787" lon="6.32558">
        <ele>134.1</ele>
        <time>2021-12-08T12:52:22.000Z</time>
      </trkpt>
      <trkpt lat="43.47784" lon="6.32545">
        <ele>133.4</ele>
        <time>2021-12-08T12:52:31.000Z</time>
      </trkpt>
      <trkpt lat="43.47782" lon="6.32531">
        <ele>132.8</ele>
        <time>2021-12-08T12:52:41.000Z</time>
      </trkpt>
      <trkpt lat="43.47781" lon="6.32518">
        <ele>131.7</ele>
        <time>2021-12-08T12:52:49.000Z</time>
      </trkpt>
      <trkpt lat="43.47781" lon="6.32505">
        <ele>130.6</ele>
        <time>2021-12-08T12:52:57.000Z</time>
      </trkpt>
      <trkpt lat="43.47781" lon="6.32492">
        <ele>129.6</ele>
        <time>2021-12-08T12:53:06.000Z</time>
      </trkpt>
      <trkpt lat="43.4778" lon="6.32478">
        <ele>128.7</ele>
        <time>2021-12-08T12:53:16.000Z</time>
      </trkpt>
      <trkpt lat="43.47777" lon="6.32465">
        <ele>128.3</ele>
        <time>2021-12-08T12:53:25.000Z</time>
      </trkpt>
      <trkpt lat="43.47774" lon="6.32452">
        <ele>128.1</ele>
        <time>2021-12-08T12:53:34.000Z</time>
      </trkpt>
      <trkpt lat="43.47771" lon="6.3244">
        <ele>127.8</ele>
        <time>2021-12-08T12:53:42.000Z</time>
      </trkpt>
      <trkpt lat="43.4777" lon="6.32426">
        <ele>127.7</ele>
        <time>2021-12-08T12:53:49.000Z</time>
      </trkpt>
      <trkpt lat="43.47767" lon="6.32414">
        <ele>127.8</ele>
        <time>2021-12-08T12:53:56.000Z</time>
      </trkpt>
      <trkpt lat="43.47764" lon="6.32402">
        <ele>127.8</ele>
        <time>2021-12-08T12:54:05.000Z</time>
      </trkpt>
      <trkpt lat="43.47758" lon="6.32391">
        <ele>128</ele>
        <time>2021-12-08T12:54:22.000Z</time>
      </trkpt>
      <trkpt lat="43.47752" lon="6.3238">
        <ele>128.2</ele>
        <time>2021-12-08T12:54:33.000Z</time>
      </trkpt>
      <trkpt lat="43.47746" lon="6.3239">
        <ele>125.4</ele>
        <time>2021-12-08T12:55:43.000Z</time>
      </trkpt>
      <trkpt lat="43.47757" lon="6.32385">
        <ele>125.4</ele>
        <time>2021-12-08T12:56:09.000Z</time>
      </trkpt>
      <trkpt lat="43.47755" lon="6.32373">
        <ele>127</ele>
        <time>2021-12-08T12:57:07.000Z</time>
      </trkpt>
      <trkpt lat="43.47746" lon="6.32368">
        <ele>129.1</ele>
        <time>2021-12-08T12:57:20.000Z</time>
      </trkpt>
      <trkpt lat="43.47738" lon="6.32364">
        <ele>129.9</ele>
        <time>2021-12-08T12:58:38.000Z</time>
      </trkpt>
      <trkpt lat="43.47732" lon="6.32353">
        <ele>130.9</ele>
        <time>2021-12-08T12:59:27.000Z</time>
      </trkpt>
      <trkpt lat="43.47728" lon="6.32342">
        <ele>131.6</ele>
        <time>2021-12-08T12:59:38.000Z</time>
      </trkpt>
      <trkpt lat="43.47725" lon="6.3233">
        <ele>132.2</ele>
        <time>2021-12-08T12:59:48.000Z</time>
      </trkpt>
      <trkpt lat="43.47725" lon="6.32317">
        <ele>134.1</ele>
        <time>2021-12-08T13:00:04.000Z</time>
      </trkpt>
      <trkpt lat="43.47722" lon="6.32305">
        <ele>134.8</ele>
        <time>2021-12-08T13:00:14.000Z</time>
      </trkpt>
      <trkpt lat="43.47717" lon="6.32295">
        <ele>135.4</ele>
        <time>2021-12-08T13:00:23.000Z</time>
      </trkpt>
      <trkpt lat="43.47713" lon="6.32283">
        <ele>135.8</ele>
        <time>2021-12-08T13:00:33.000Z</time>
      </trkpt>
      <trkpt lat="43.4771" lon="6.32271">
        <ele>136.3</ele>
        <time>2021-12-08T13:00:42.000Z</time>
      </trkpt>
      <trkpt lat="43.4771" lon="6.32258">
        <ele>137.3</ele>
        <time>2021-12-08T13:00:52.000Z</time>
      </trkpt>
      <trkpt lat="43.47707" lon="6.32244">
        <ele>138</ele>
        <time>2021-12-08T13:01:01.000Z</time>
      </trkpt>
      <trkpt lat="43.47702" lon="6.32233">
        <ele>138.9</ele>
        <time>2021-12-08T13:01:10.000Z</time>
      </trkpt>
      <trkpt lat="43.47695" lon="6.32223">
        <ele>140.2</ele>
        <time>2021-12-08T13:01:19.000Z</time>
      </trkpt>
      <trkpt lat="43.47689" lon="6.32214">
        <ele>141</ele>
        <time>2021-12-08T13:01:26.000Z</time>
      </trkpt>
      <trkpt lat="43.47681" lon="6.32205">
        <ele>141.6</ele>
        <time>2021-12-08T13:01:31.000Z</time>
      </trkpt>
      <trkpt lat="43.47676" lon="6.32195">
        <ele>141.9</ele>
        <time>2021-12-08T13:01:41.000Z</time>
      </trkpt>
      <trkpt lat="43.47669" lon="6.32185">
        <ele>142.6</ele>
        <time>2021-12-08T13:01:51.000Z</time>
      </trkpt>
      <trkpt lat="43.47664" lon="6.32174">
        <ele>143.5</ele>
        <time>2021-12-08T13:01:59.000Z</time>
      </trkpt>
      <trkpt lat="43.47658" lon="6.32162">
        <ele>143.8</ele>
        <time>2021-12-08T13:02:09.000Z</time>
      </trkpt>
      <trkpt lat="43.47654" lon="6.32151">
        <ele>144.2</ele>
        <time>2021-12-08T13:02:17.000Z</time>
      </trkpt>
      <trkpt lat="43.47648" lon="6.32142">
        <ele>145.4</ele>
        <time>2021-12-08T13:02:28.000Z</time>
      </trkpt>
      <trkpt lat="43.47642" lon="6.32132">
        <ele>146.2</ele>
        <time>2021-12-08T13:02:39.000Z</time>
      </trkpt>
      <trkpt lat="43.47635" lon="6.32123">
        <ele>146.5</ele>
        <time>2021-12-08T13:02:47.000Z</time>
      </trkpt>
      <trkpt lat="43.47628" lon="6.32113">
        <ele>147.2</ele>
        <time>2021-12-08T13:02:53.000Z</time>
      </trkpt>
      <trkpt lat="43.47623" lon="6.32103">
        <ele>147.9</ele>
        <time>2021-12-08T13:03:02.000Z</time>
      </trkpt>
      <trkpt lat="43.47619" lon="6.32091">
        <ele>148.4</ele>
        <time>2021-12-08T13:03:12.000Z</time>
      </trkpt>
      <trkpt lat="43.47613" lon="6.32081">
        <ele>149.2</ele>
        <time>2021-12-08T13:03:22.000Z</time>
      </trkpt>
      <trkpt lat="43.47609" lon="6.32069">
        <ele>150</ele>
        <time>2021-12-08T13:03:31.000Z</time>
      </trkpt>
      <trkpt lat="43.47603" lon="6.3206">
        <ele>150.7</ele>
        <time>2021-12-08T13:03:39.000Z</time>
      </trkpt>
      <trkpt lat="43.47595" lon="6.32053">
        <ele>151</ele>
        <time>2021-12-08T13:03:45.000Z</time>
      </trkpt>
      <trkpt lat="43.47593" lon="6.32066">
        <ele>150.8</ele>
        <time>2021-12-08T13:04:01.000Z</time>
      </trkpt>
      <trkpt lat="43.47593" lon="6.32079">
        <ele>150.8</ele>
        <time>2021-12-08T13:04:11.000Z</time>
      </trkpt>
      <trkpt lat="43.47591" lon="6.32092">
        <ele>150.7</ele>
        <time>2021-12-08T13:04:20.000Z</time>
      </trkpt>
      <trkpt lat="43.47594" lon="6.32104">
        <ele>150.9</ele>
        <time>2021-12-08T13:04:32.000Z</time>
      </trkpt>
      <trkpt lat="43.47589" lon="6.32115">
        <ele>151.3</ele>
        <time>2021-12-08T13:04:44.000Z</time>
      </trkpt>
      <trkpt lat="43.47585" lon="6.32127">
        <ele>152.4</ele>
        <time>2021-12-08T13:04:53.000Z</time>
      </trkpt>
      <trkpt lat="43.47581" lon="6.3214">
        <ele>153.7</ele>
        <time>2021-12-08T13:05:02.000Z</time>
      </trkpt>
      <trkpt lat="43.47578" lon="6.32151">
        <ele>154.4</ele>
        <time>2021-12-08T13:05:11.000Z</time>
      </trkpt>
      <trkpt lat="43.47572" lon="6.32162">
        <ele>154.9</ele>
        <time>2021-12-08T13:05:18.000Z</time>
      </trkpt>
      <trkpt lat="43.47569" lon="6.32174">
        <ele>155.3</ele>
        <time>2021-12-08T13:05:25.000Z</time>
      </trkpt>
      <trkpt lat="43.47565" lon="6.32186">
        <ele>155.5</ele>
        <time>2021-12-08T13:05:35.000Z</time>
      </trkpt>
      <trkpt lat="43.4756" lon="6.32196">
        <ele>156</ele>
        <time>2021-12-08T13:05:46.000Z</time>
      </trkpt>
      <trkpt lat="43.47554" lon="6.32206">
        <ele>157.3</ele>
        <time>2021-12-08T13:05:55.000Z</time>
      </trkpt>
      <trkpt lat="43.47548" lon="6.32217">
        <ele>158.5</ele>
        <time>2021-12-08T13:06:03.000Z</time>
      </trkpt>
      <trkpt lat="43.47541" lon="6.32226">
        <ele>159.5</ele>
        <time>2021-12-08T13:06:11.000Z</time>
      </trkpt>
      <trkpt lat="43.47534" lon="6.32234">
        <ele>160.3</ele>
        <time>2021-12-08T13:06:19.000Z</time>
      </trkpt>
      <trkpt lat="43.47528" lon="6.32245">
        <ele>161</ele>
        <time>2021-12-08T13:06:28.000Z</time>
      </trkpt>
      <trkpt lat="43.47526" lon="6.32258">
        <ele>161.3</ele>
        <time>2021-12-08T13:06:34.000Z</time>
      </trkpt>
      <trkpt lat="43.47529" lon="6.3227">
        <ele>161.3</ele>
        <time>2021-12-08T13:06:40.000Z</time>
      </trkpt>
      <trkpt lat="43.4753" lon="6.32283">
        <ele>161.6</ele>
        <time>2021-12-08T13:06:49.000Z</time>
      </trkpt>
      <trkpt lat="43.47533" lon="6.32296">
        <ele>161.8</ele>
        <time>2021-12-08T13:06:57.000Z</time>
      </trkpt>
      <trkpt lat="43.47535" lon="6.32308">
        <ele>161.9</ele>
        <time>2021-12-08T13:07:08.000Z</time>
      </trkpt>
      <trkpt lat="43.47527" lon="6.32315">
        <ele>162.4</ele>
        <time>2021-12-08T13:07:24.000Z</time>
      </trkpt>
      <trkpt lat="43.47518" lon="6.32316">
        <ele>162.4</ele>
        <time>2021-12-08T13:07:33.000Z</time>
      </trkpt>
      <trkpt lat="43.47508" lon="6.32319">
        <ele>162.8</ele>
        <time>2021-12-08T13:07:40.000Z</time>
      </trkpt>
      <trkpt lat="43.47499" lon="6.32321">
        <ele>163.1</ele>
        <time>2021-12-08T13:07:51.000Z</time>
      </trkpt>
      <trkpt lat="43.47489" lon="6.32323">
        <ele>163.5</ele>
        <time>2021-12-08T13:08:16.000Z</time>
      </trkpt>
      <trkpt lat="43.47481" lon="6.3232">
        <ele>164.1</ele>
        <time>2021-12-08T13:08:25.000Z</time>
      </trkpt>
      <trkpt lat="43.47471" lon="6.32316">
        <ele>164.2</ele>
        <time>2021-12-08T13:08:36.000Z</time>
      </trkpt>
      <trkpt lat="43.47461" lon="6.32315">
        <ele>164.1</ele>
        <time>2021-12-08T13:08:42.000Z</time>
      </trkpt>
      <trkpt lat="43.47451" lon="6.32315">
        <ele>164.2</ele>
        <time>2021-12-08T13:08:49.000Z</time>
      </trkpt>
      <trkpt lat="43.47443" lon="6.32309">
        <ele>164.2</ele>
        <time>2021-12-08T13:08:57.000Z</time>
      </trkpt>
      <trkpt lat="43.47434" lon="6.32309">
        <ele>164.4</ele>
        <time>2021-12-08T13:09:05.000Z</time>
      </trkpt>
      <trkpt lat="43.47425" lon="6.32303">
        <ele>164.2</ele>
        <time>2021-12-08T13:09:12.000Z</time>
      </trkpt>
      <trkpt lat="43.47416" lon="6.32302">
        <ele>163.9</ele>
        <time>2021-12-08T13:09:20.000Z</time>
      </trkpt>
      <trkpt lat="43.47407" lon="6.32299">
        <ele>163.4</ele>
        <time>2021-12-08T13:09:26.000Z</time>
      </trkpt>
      <trkpt lat="43.47398" lon="6.32298">
        <ele>162.8</ele>
        <time>2021-12-08T13:09:33.000Z</time>
      </trkpt>
      <trkpt lat="43.47388" lon="6.32295">
        <ele>162.1</ele>
        <time>2021-12-08T13:09:41.000Z</time>
      </trkpt>
      <trkpt lat="43.47378" lon="6.32291">
        <ele>161.7</ele>
        <time>2021-12-08T13:09:50.000Z</time>
      </trkpt>
      <trkpt lat="43.4737" lon="6.32295">
        <ele>161.5</ele>
        <time>2021-12-08T13:09:55.000Z</time>
      </trkpt>
      <trkpt lat="43.4736" lon="6.32291">
        <ele>161.4</ele>
        <time>2021-12-08T13:10:04.000Z</time>
      </trkpt>
      <trkpt lat="43.47351" lon="6.32288">
        <ele>161.2</ele>
        <time>2021-12-08T13:10:13.000Z</time>
      </trkpt>
      <trkpt lat="43.47342" lon="6.32288">
        <ele>161.1</ele>
        <time>2021-12-08T13:10:22.000Z</time>
      </trkpt>
      <trkpt lat="43.47331" lon="6.32288">
        <ele>160.6</ele>
        <time>2021-12-08T13:10:34.000Z</time>
      </trkpt>
      <trkpt lat="43.47322" lon="6.3229">
        <ele>160.6</ele>
        <time>2021-12-08T13:10:42.000Z</time>
      </trkpt>
      <trkpt lat="43.47313" lon="6.32293">
        <ele>160.8</ele>
        <time>2021-12-08T13:10:50.000Z</time>
      </trkpt>
      <trkpt lat="43.47303" lon="6.32293">
        <ele>161.5</ele>
        <time>2021-12-08T13:10:57.000Z</time>
      </trkpt>
      <trkpt lat="43.47294" lon="6.32299">
        <ele>162</ele>
        <time>2021-12-08T13:11:04.000Z</time>
      </trkpt>
      <trkpt lat="43.47284" lon="6.32301">
        <ele>163.3</ele>
        <time>2021-12-08T13:11:13.000Z</time>
      </trkpt>
      <trkpt lat="43.47275" lon="6.32304">
        <ele>164.3</ele>
        <time>2021-12-08T13:11:21.000Z</time>
      </trkpt>
      <trkpt lat="43.47266" lon="6.32307">
        <ele>165.2</ele>
        <time>2021-12-08T13:11:29.000Z</time>
      </trkpt>
      <trkpt lat="43.47257" lon="6.32312">
        <ele>165.8</ele>
        <time>2021-12-08T13:11:38.000Z</time>
      </trkpt>
      <trkpt lat="43.47249" lon="6.32315">
        <ele>166.1</ele>
        <time>2021-12-08T13:11:44.000Z</time>
      </trkpt>
      <trkpt lat="43.47239" lon="6.32319">
        <ele>166.7</ele>
        <time>2021-12-08T13:11:55.000Z</time>
      </trkpt>
      <trkpt lat="43.47229" lon="6.32324">
        <ele>167.8</ele>
        <time>2021-12-08T13:12:04.000Z</time>
      </trkpt>
      <trkpt lat="43.47224" lon="6.32334">
        <ele>167.3</ele>
        <time>2021-12-08T13:12:12.000Z</time>
      </trkpt>
      <trkpt lat="43.4722" lon="6.32345">
        <ele>166.9</ele>
        <time>2021-12-08T13:12:22.000Z</time>
      </trkpt>
      <trkpt lat="43.47213" lon="6.32355">
        <ele>166.4</ele>
        <time>2021-12-08T13:12:35.000Z</time>
      </trkpt>
      <trkpt lat="43.47203" lon="6.3236">
        <ele>166.3</ele>
        <time>2021-12-08T13:12:43.000Z</time>
      </trkpt>
      <trkpt lat="43.47197" lon="6.3237">
        <ele>165.2</ele>
        <time>2021-12-08T13:12:53.000Z</time>
      </trkpt>
      <trkpt lat="43.47193" lon="6.32384">
        <ele>165</ele>
        <time>2021-12-08T13:13:02.000Z</time>
      </trkpt>
      <trkpt lat="43.47194" lon="6.32398">
        <ele>165.1</ele>
        <time>2021-12-08T13:13:10.000Z</time>
      </trkpt>
      <trkpt lat="43.47194" lon="6.32411">
        <ele>165.1</ele>
        <time>2021-12-08T13:13:19.000Z</time>
      </trkpt>
      <trkpt lat="43.47191" lon="6.32424">
        <ele>165.2</ele>
        <time>2021-12-08T13:13:25.000Z</time>
      </trkpt>
      <trkpt lat="43.47186" lon="6.32435">
        <ele>165.5</ele>
        <time>2021-12-08T13:13:33.000Z</time>
      </trkpt>
      <trkpt lat="43.47182" lon="6.32447">
        <ele>165.6</ele>
        <time>2021-12-08T13:13:42.000Z</time>
      </trkpt>
      <trkpt lat="43.47176" lon="6.32458">
        <ele>165.4</ele>
        <time>2021-12-08T13:13:51.000Z</time>
      </trkpt>
      <trkpt lat="43.47168" lon="6.32462">
        <ele>164.9</ele>
        <time>2021-12-08T13:14:03.000Z</time>
      </trkpt>
      <trkpt lat="43.47158" lon="6.32459">
        <ele>163.8</ele>
        <time>2021-12-08T13:14:12.000Z</time>
      </trkpt>
      <trkpt lat="43.47149" lon="6.32456">
        <ele>163</ele>
        <time>2021-12-08T13:14:19.000Z</time>
      </trkpt>
      <trkpt lat="43.47141" lon="6.32461">
        <ele>161.9</ele>
        <time>2021-12-08T13:14:27.000Z</time>
      </trkpt>
      <trkpt lat="43.47132" lon="6.32461">
        <ele>160.8</ele>
        <time>2021-12-08T13:14:37.000Z</time>
      </trkpt>
      <trkpt lat="43.47123" lon="6.32466">
        <ele>160.2</ele>
        <time>2021-12-08T13:14:44.000Z</time>
      </trkpt>
      <trkpt lat="43.47114" lon="6.32472">
        <ele>158.7</ele>
        <time>2021-12-08T13:14:53.000Z</time>
      </trkpt>
      <trkpt lat="43.47105" lon="6.32474">
        <ele>157.9</ele>
        <time>2021-12-08T13:14:58.000Z</time>
      </trkpt>
      <trkpt lat="43.47096" lon="6.32471">
        <ele>156.9</ele>
        <time>2021-12-08T13:15:05.000Z</time>
      </trkpt>
      <trkpt lat="43.47086" lon="6.32469">
        <ele>155.2</ele>
        <time>2021-12-08T13:15:14.000Z</time>
      </trkpt>
      <trkpt lat="43.47077" lon="6.32474">
        <ele>153.5</ele>
        <time>2021-12-08T13:15:23.000Z</time>
      </trkpt>
      <trkpt lat="43.47068" lon="6.32476">
        <ele>151.3</ele>
        <time>2021-12-08T13:15:35.000Z</time>
      </trkpt>
      <trkpt lat="43.47059" lon="6.32479">
        <ele>149.7</ele>
        <time>2021-12-08T13:15:42.000Z</time>
      </trkpt>
      <trkpt lat="43.4705" lon="6.32481">
        <ele>148.6</ele>
        <time>2021-12-08T13:15:49.000Z</time>
      </trkpt>
      <trkpt lat="43.47041" lon="6.32482">
        <ele>147.4</ele>
        <time>2021-12-08T13:15:59.000Z</time>
      </trkpt>
      <trkpt lat="43.4703" lon="6.32487">
        <ele>146.3</ele>
        <time>2021-12-08T13:16:08.000Z</time>
      </trkpt>
      <trkpt lat="43.47022" lon="6.32481">
        <ele>144.7</ele>
        <time>2021-12-08T13:16:26.000Z</time>
      </trkpt>
      <trkpt lat="43.47013" lon="6.32477">
        <ele>144.1</ele>
        <time>2021-12-08T13:16:33.000Z</time>
      </trkpt>
      <trkpt lat="43.47005" lon="6.32472">
        <ele>142.9</ele>
        <time>2021-12-08T13:16:40.000Z</time>
      </trkpt>
      <trkpt lat="43.46997" lon="6.32464">
        <ele>142</ele>
        <time>2021-12-08T13:16:49.000Z</time>
      </trkpt>
      <trkpt lat="43.46989" lon="6.3246">
        <ele>140.7</ele>
        <time>2021-12-08T13:16:57.000Z</time>
      </trkpt>
      <trkpt lat="43.46979" lon="6.32456">
        <ele>139.3</ele>
        <time>2021-12-08T13:17:05.000Z</time>
      </trkpt>
      <trkpt lat="43.46971" lon="6.32451">
        <ele>137.7</ele>
        <time>2021-12-08T13:17:16.000Z</time>
      </trkpt>
      <trkpt lat="43.46962" lon="6.32449">
        <ele>137</ele>
        <time>2021-12-08T13:17:53.000Z</time>
      </trkpt>
      <trkpt lat="43.46953" lon="6.32447">
        <ele>136.3</ele>
        <time>2021-12-08T13:19:39.000Z</time>
      </trkpt>
      <trkpt lat="43.46946" lon="6.32438">
        <ele>135.3</ele>
        <time>2021-12-08T13:19:51.000Z</time>
      </trkpt>
      <trkpt lat="43.46937" lon="6.32436">
        <ele>134.8</ele>
        <time>2021-12-08T13:19:58.000Z</time>
      </trkpt>
      <trkpt lat="43.46928" lon="6.3244">
        <ele>134.5</ele>
        <time>2021-12-08T13:20:05.000Z</time>
      </trkpt>
      <trkpt lat="43.46919" lon="6.32446">
        <ele>134.1</ele>
        <time>2021-12-08T13:20:15.000Z</time>
      </trkpt>
      <trkpt lat="43.46911" lon="6.3245">
        <ele>133.7</ele>
        <time>2021-12-08T13:20:22.000Z</time>
      </trkpt>
      <trkpt lat="43.46903" lon="6.32458">
        <ele>133</ele>
        <time>2021-12-08T13:20:31.000Z</time>
      </trkpt>
      <trkpt lat="43.46895" lon="6.32462">
        <ele>133</ele>
        <time>2021-12-08T13:20:39.000Z</time>
      </trkpt>
      <trkpt lat="43.46886" lon="6.32466">
        <ele>133.1</ele>
        <time>2021-12-08T13:20:47.000Z</time>
      </trkpt>
      <trkpt lat="43.4688" lon="6.32456">
        <ele>132.8</ele>
        <time>2021-12-08T13:21:03.000Z</time>
      </trkpt>
      <trkpt lat="43.46872" lon="6.32448">
        <ele>132.3</ele>
        <time>2021-12-08T13:21:33.000Z</time>
      </trkpt>
      <trkpt lat="43.46864" lon="6.32453">
        <ele>132</ele>
        <time>2021-12-08T13:21:51.000Z</time>
      </trkpt>
      <trkpt lat="43.46873" lon="6.32455">
        <ele>132.5</ele>
        <time>2021-12-08T13:23:38.000Z</time>
      </trkpt>
      <trkpt lat="43.46877" lon="6.32466">
        <ele>132.4</ele>
        <time>2021-12-08T13:23:46.000Z</time>
      </trkpt>
      <trkpt lat="43.46876" lon="6.32479">
        <ele>133</ele>
        <time>2021-12-08T13:23:57.000Z</time>
      </trkpt>
      <trkpt lat="43.46869" lon="6.32486">
        <ele>133.1</ele>
        <time>2021-12-08T13:24:06.000Z</time>
      </trkpt>
      <trkpt lat="43.4686" lon="6.32492">
        <ele>132.1</ele>
        <time>2021-12-08T13:24:16.000Z</time>
      </trkpt>
      <trkpt lat="43.46853" lon="6.325">
        <ele>130.8</ele>
        <time>2021-12-08T13:24:25.000Z</time>
      </trkpt>
      <trkpt lat="43.46845" lon="6.32506">
        <ele>129.9</ele>
        <time>2021-12-08T13:24:34.000Z</time>
      </trkpt>
      <trkpt lat="43.46838" lon="6.32514">
        <ele>129</ele>
        <time>2021-12-08T13:24:42.000Z</time>
      </trkpt>
      <trkpt lat="43.46831" lon="6.32523">
        <ele>127.9</ele>
        <time>2021-12-08T13:24:52.000Z</time>
      </trkpt>
      <trkpt lat="43.46828" lon="6.32536">
        <ele>127.1</ele>
        <time>2021-12-08T13:25:00.000Z</time>
      </trkpt>
      <trkpt lat="43.46823" lon="6.32546">
        <ele>125.9</ele>
        <time>2021-12-08T13:25:09.000Z</time>
      </trkpt>
      <trkpt lat="43.46818" lon="6.32557">
        <ele>124.7</ele>
        <time>2021-12-08T13:25:19.000Z</time>
      </trkpt>
      <trkpt lat="43.46813" lon="6.32568">
        <ele>123.7</ele>
        <time>2021-12-08T13:25:27.000Z</time>
      </trkpt>
      <trkpt lat="43.46812" lon="6.32582">
        <ele>123</ele>
        <time>2021-12-08T13:25:36.000Z</time>
      </trkpt>
      <trkpt lat="43.46808" lon="6.32594">
        <ele>122.2</ele>
        <time>2021-12-08T13:25:45.000Z</time>
      </trkpt>
      <trkpt lat="43.46799" lon="6.32595">
        <ele>121.7</ele>
        <time>2021-12-08T13:25:54.000Z</time>
      </trkpt>
      <trkpt lat="43.46792" lon="6.32584">
        <ele>120.9</ele>
        <time>2021-12-08T13:26:05.000Z</time>
      </trkpt>
      <trkpt lat="43.46786" lon="6.32573">
        <ele>121</ele>
        <time>2021-12-08T13:26:14.000Z</time>
      </trkpt>
      <trkpt lat="43.46779" lon="6.32564">
        <ele>121.2</ele>
        <time>2021-12-08T13:26:22.000Z</time>
      </trkpt>
      <trkpt lat="43.46773" lon="6.32555">
        <ele>120.8</ele>
        <time>2021-12-08T13:26:29.000Z</time>
      </trkpt>
      <trkpt lat="43.46766" lon="6.32545">
        <ele>121.2</ele>
        <time>2021-12-08T13:26:37.000Z</time>
      </trkpt>
      <trkpt lat="43.4676" lon="6.32535">
        <ele>121.6</ele>
        <time>2021-12-08T13:26:45.000Z</time>
      </trkpt>
      <trkpt lat="43.46754" lon="6.32524">
        <ele>122</ele>
        <time>2021-12-08T13:26:54.000Z</time>
      </trkpt>
      <trkpt lat="43.4675" lon="6.32512">
        <ele>121.6</ele>
        <time>2021-12-08T13:27:03.000Z</time>
      </trkpt>
      <trkpt lat="43.46744" lon="6.325">
        <ele>119.9</ele>
        <time>2021-12-08T13:27:12.000Z</time>
      </trkpt>
      <trkpt lat="43.46742" lon="6.32488">
        <ele>118.2</ele>
        <time>2021-12-08T13:27:22.000Z</time>
      </trkpt>
      <trkpt lat="43.46733" lon="6.32481">
        <ele>117</ele>
        <time>2021-12-08T13:27:29.000Z</time>
      </trkpt>
      <trkpt lat="43.46724" lon="6.32481">
        <ele>116.1</ele>
        <time>2021-12-08T13:27:39.000Z</time>
      </trkpt>
      <trkpt lat="43.46714" lon="6.32484">
        <ele>114.6</ele>
        <time>2021-12-08T13:27:47.000Z</time>
      </trkpt>
      <trkpt lat="43.46705" lon="6.32484">
        <ele>113.7</ele>
        <time>2021-12-08T13:28:03.000Z</time>
      </trkpt>
      <trkpt lat="43.46695" lon="6.32486">
        <ele>113.1</ele>
        <time>2021-12-08T13:28:12.000Z</time>
      </trkpt>
      <trkpt lat="43.46685" lon="6.32489">
        <ele>112.9</ele>
        <time>2021-12-08T13:28:24.000Z</time>
      </trkpt>
      <trkpt lat="43.46675" lon="6.3249">
        <ele>112.3</ele>
        <time>2021-12-08T13:28:32.000Z</time>
      </trkpt>
      <trkpt lat="43.46665" lon="6.32493">
        <ele>112</ele>
        <time>2021-12-08T13:28:40.000Z</time>
      </trkpt>
      <trkpt lat="43.46655" lon="6.32496">
        <ele>112</ele>
        <time>2021-12-08T13:28:48.000Z</time>
      </trkpt>
      <trkpt lat="43.46645" lon="6.32498">
        <ele>111.7</ele>
        <time>2021-12-08T13:28:57.000Z</time>
      </trkpt>
      <trkpt lat="43.46635" lon="6.325">
        <ele>112.7</ele>
        <time>2021-12-08T13:29:05.000Z</time>
      </trkpt>
      <trkpt lat="43.46626" lon="6.32502">
        <ele>112.9</ele>
        <time>2021-12-08T13:29:14.000Z</time>
      </trkpt>
      <trkpt lat="43.46617" lon="6.32504">
        <ele>112.6</ele>
        <time>2021-12-08T13:29:22.000Z</time>
      </trkpt>
      <trkpt lat="43.46607" lon="6.32506">
        <ele>113.3</ele>
        <time>2021-12-08T13:29:31.000Z</time>
      </trkpt>
      <trkpt lat="43.46598" lon="6.32508">
        <ele>113.3</ele>
        <time>2021-12-08T13:29:41.000Z</time>
      </trkpt>
      <trkpt lat="43.4659" lon="6.32515">
        <ele>112.5</ele>
        <time>2021-12-08T13:29:51.000Z</time>
      </trkpt>
      <trkpt lat="43.46584" lon="6.32525">
        <ele>111.4</ele>
        <time>2021-12-08T13:30:00.000Z</time>
      </trkpt>
      <trkpt lat="43.46577" lon="6.32533">
        <ele>110.5</ele>
        <time>2021-12-08T13:30:11.000Z</time>
      </trkpt>
      <trkpt lat="43.46568" lon="6.32538">
        <ele>109.1</ele>
        <time>2021-12-08T13:30:21.000Z</time>
      </trkpt>
      <trkpt lat="43.46559" lon="6.32542">
        <ele>108</ele>
        <time>2021-12-08T13:30:32.000Z</time>
      </trkpt>
      <trkpt lat="43.46549" lon="6.32542">
        <ele>107.2</ele>
        <time>2021-12-08T13:30:41.000Z</time>
      </trkpt>
      <trkpt lat="43.4654" lon="6.32545">
        <ele>106.9</ele>
        <time>2021-12-08T13:30:49.000Z</time>
      </trkpt>
      <trkpt lat="43.4653" lon="6.32547">
        <ele>106.4</ele>
        <time>2021-12-08T13:30:57.000Z</time>
      </trkpt>
      <trkpt lat="43.46521" lon="6.32547">
        <ele>105.7</ele>
        <time>2021-12-08T13:31:12.000Z</time>
      </trkpt>
      <trkpt lat="43.46512" lon="6.32542">
        <ele>105.2</ele>
        <time>2021-12-08T13:31:21.000Z</time>
      </trkpt>
      <trkpt lat="43.46503" lon="6.32538">
        <ele>103.7</ele>
        <time>2021-12-08T13:31:32.000Z</time>
      </trkpt>
      <trkpt lat="43.46494" lon="6.32535">
        <ele>102.4</ele>
        <time>2021-12-08T13:31:40.000Z</time>
      </trkpt>
      <trkpt lat="43.46485" lon="6.32532">
        <ele>101.8</ele>
        <time>2021-12-08T13:31:47.000Z</time>
      </trkpt>
      <trkpt lat="43.4648" lon="6.32521">
        <ele>100.5</ele>
        <time>2021-12-08T13:31:58.000Z</time>
      </trkpt>
      <trkpt lat="43.46484" lon="6.32509">
        <ele>100.1</ele>
        <time>2021-12-08T13:32:08.000Z</time>
      </trkpt>
      <trkpt lat="43.46486" lon="6.32497">
        <ele>99.5</ele>
        <time>2021-12-08T13:32:27.000Z</time>
      </trkpt>
      <trkpt lat="43.46489" lon="6.32485">
        <ele>99.2</ele>
        <time>2021-12-08T13:32:36.000Z</time>
      </trkpt>
      <trkpt lat="43.46498" lon="6.32481">
        <ele>98.5</ele>
        <time>2021-12-08T13:35:10.000Z</time>
      </trkpt>
      <trkpt lat="43.46489" lon="6.32483">
        <ele>99.3</ele>
        <time>2021-12-08T13:40:47.000Z</time>
      </trkpt>
      <trkpt lat="43.46482" lon="6.32493">
        <ele>99.1</ele>
        <time>2021-12-08T13:41:02.000Z</time>
      </trkpt>
      <trkpt lat="43.46479" lon="6.32505">
        <ele>99.6</ele>
        <time>2021-12-08T13:41:13.000Z</time>
      </trkpt>
      <trkpt lat="43.46477" lon="6.32518">
        <ele>100.2</ele>
        <time>2021-12-08T13:41:25.000Z</time>
      </trkpt>
      <trkpt lat="43.46483" lon="6.32528">
        <ele>100.7</ele>
        <time>2021-12-08T13:41:33.000Z</time>
      </trkpt>
      <trkpt lat="43.46491" lon="6.32535">
        <ele>101.8</ele>
        <time>2021-12-08T13:41:43.000Z</time>
      </trkpt>
      <trkpt lat="43.46499" lon="6.32539">
        <ele>102.9</ele>
        <time>2021-12-08T13:41:55.000Z</time>
      </trkpt>
      <trkpt lat="43.46508" lon="6.32544">
        <ele>104.3</ele>
        <time>2021-12-08T13:42:04.000Z</time>
      </trkpt>
      <trkpt lat="43.46516" lon="6.32549">
        <ele>105.4</ele>
        <time>2021-12-08T13:42:12.000Z</time>
      </trkpt>
      <trkpt lat="43.46525" lon="6.32553">
        <ele>106.3</ele>
        <time>2021-12-08T13:42:21.000Z</time>
      </trkpt>
      <trkpt lat="43.46534" lon="6.32553">
        <ele>106.7</ele>
        <time>2021-12-08T13:42:29.000Z</time>
      </trkpt>
      <trkpt lat="43.46544" lon="6.32552">
        <ele>107.2</ele>
        <time>2021-12-08T13:42:36.000Z</time>
      </trkpt>
      <trkpt lat="43.46554" lon="6.3255">
        <ele>107.7</ele>
        <time>2021-12-08T13:42:43.000Z</time>
      </trkpt>
      <trkpt lat="43.46563" lon="6.3255">
        <ele>107.7</ele>
        <time>2021-12-08T13:42:51.000Z</time>
      </trkpt>
      <trkpt lat="43.46573" lon="6.32551">
        <ele>107.6</ele>
        <time>2021-12-08T13:42:59.000Z</time>
      </trkpt>
      <trkpt lat="43.46583" lon="6.32549">
        <ele>107.6</ele>
        <time>2021-12-08T13:43:06.000Z</time>
      </trkpt>
      <trkpt lat="43.46592" lon="6.32547">
        <ele>107.6</ele>
        <time>2021-12-08T13:43:13.000Z</time>
      </trkpt>
      <trkpt lat="43.46601" lon="6.32546">
        <ele>107.4</ele>
        <time>2021-12-08T13:43:20.000Z</time>
      </trkpt>
      <trkpt lat="43.46611" lon="6.32547">
        <ele>106.8</ele>
        <time>2021-12-08T13:43:28.000Z</time>
      </trkpt>
      <trkpt lat="43.4662" lon="6.3255">
        <ele>106.7</ele>
        <time>2021-12-08T13:43:35.000Z</time>
      </trkpt>
      <trkpt lat="43.46629" lon="6.32555">
        <ele>107</ele>
        <time>2021-12-08T13:43:42.000Z</time>
      </trkpt>
      <trkpt lat="43.46637" lon="6.3256">
        <ele>107.2</ele>
        <time>2021-12-08T13:43:50.000Z</time>
      </trkpt>
      <trkpt lat="43.46648" lon="6.32563">
        <ele>107.5</ele>
        <time>2021-12-08T13:43:58.000Z</time>
      </trkpt>
      <trkpt lat="43.46657" lon="6.32566">
        <ele>107.3</ele>
        <time>2021-12-08T13:44:05.000Z</time>
      </trkpt>
      <trkpt lat="43.46666" lon="6.32569">
        <ele>107.1</ele>
        <time>2021-12-08T13:44:11.000Z</time>
      </trkpt>
      <trkpt lat="43.46674" lon="6.32576">
        <ele>107.2</ele>
        <time>2021-12-08T13:44:18.000Z</time>
      </trkpt>
      <trkpt lat="43.4668" lon="6.32588">
        <ele>107.4</ele>
        <time>2021-12-08T13:44:25.000Z</time>
      </trkpt>
      <trkpt lat="43.46687" lon="6.32598">
        <ele>107.4</ele>
        <time>2021-12-08T13:44:32.000Z</time>
      </trkpt>
      <trkpt lat="43.46694" lon="6.32608">
        <ele>107.1</ele>
        <time>2021-12-08T13:44:39.000Z</time>
      </trkpt>
      <trkpt lat="43.467" lon="6.32618">
        <ele>106.4</ele>
        <time>2021-12-08T13:44:46.000Z</time>
      </trkpt>
      <trkpt lat="43.46707" lon="6.32628">
        <ele>105.9</ele>
        <time>2021-12-08T13:44:53.000Z</time>
      </trkpt>
      <trkpt lat="43.46713" lon="6.32637">
        <ele>105.2</ele>
        <time>2021-12-08T13:45:00.000Z</time>
      </trkpt>
      <trkpt lat="43.46716" lon="6.3265">
        <ele>104.1</ele>
        <time>2021-12-08T13:45:06.000Z</time>
      </trkpt>
      <trkpt lat="43.46716" lon="6.32664">
        <ele>103.3</ele>
        <time>2021-12-08T13:45:13.000Z</time>
      </trkpt>
      <trkpt lat="43.46717" lon="6.32676">
        <ele>102.5</ele>
        <time>2021-12-08T13:45:20.000Z</time>
      </trkpt>
      <trkpt lat="43.46719" lon="6.3269">
        <ele>101.4</ele>
        <time>2021-12-08T13:45:27.000Z</time>
      </trkpt>
      <trkpt lat="43.46722" lon="6.32702">
        <ele>100.7</ele>
        <time>2021-12-08T13:45:34.000Z</time>
      </trkpt>
      <trkpt lat="43.46727" lon="6.32713">
        <ele>100</ele>
        <time>2021-12-08T13:45:41.000Z</time>
      </trkpt>
      <trkpt lat="43.46734" lon="6.32724">
        <ele>99.8</ele>
        <time>2021-12-08T13:45:49.000Z</time>
      </trkpt>
      <trkpt lat="43.46742" lon="6.32732">
        <ele>99.4</ele>
        <time>2021-12-08T13:45:57.000Z</time>
      </trkpt>
      <trkpt lat="43.46751" lon="6.32735">
        <ele>99.2</ele>
        <time>2021-12-08T13:46:05.000Z</time>
      </trkpt>
      <trkpt lat="43.46761" lon="6.32731">
        <ele>99</ele>
        <time>2021-12-08T13:46:16.000Z</time>
      </trkpt>
      <trkpt lat="43.46766" lon="6.32721">
        <ele>98.8</ele>
        <time>2021-12-08T13:46:23.000Z</time>
      </trkpt>
      <trkpt lat="43.46772" lon="6.3271">
        <ele>98.9</ele>
        <time>2021-12-08T13:46:31.000Z</time>
      </trkpt>
      <trkpt lat="43.46777" lon="6.32699">
        <ele>100</ele>
        <time>2021-12-08T13:46:42.000Z</time>
      </trkpt>
      <trkpt lat="43.46785" lon="6.32692">
        <ele>100.7</ele>
        <time>2021-12-08T13:46:52.000Z</time>
      </trkpt>
      <trkpt lat="43.46794" lon="6.32687">
        <ele>100.6</ele>
        <time>2021-12-08T13:47:06.000Z</time>
      </trkpt>
      <trkpt lat="43.46803" lon="6.32681">
        <ele>100.6</ele>
        <time>2021-12-08T13:47:15.000Z</time>
      </trkpt>
      <trkpt lat="43.46812" lon="6.32676">
        <ele>100.7</ele>
        <time>2021-12-08T13:47:23.000Z</time>
      </trkpt>
      <trkpt lat="43.46821" lon="6.32672">
        <ele>100.8</ele>
        <time>2021-12-08T13:47:29.000Z</time>
      </trkpt>
      <trkpt lat="43.46829" lon="6.32666">
        <ele>101.1</ele>
        <time>2021-12-08T13:47:38.000Z</time>
      </trkpt>
      <trkpt lat="43.46837" lon="6.3266">
        <ele>101.2</ele>
        <time>2021-12-08T13:47:46.000Z</time>
      </trkpt>
      <trkpt lat="43.46847" lon="6.32657">
        <ele>101.7</ele>
        <time>2021-12-08T13:47:55.000Z</time>
      </trkpt>
      <trkpt lat="43.46856" lon="6.3266">
        <ele>102.1</ele>
        <time>2021-12-08T13:48:03.000Z</time>
      </trkpt>
      <trkpt lat="43.46864" lon="6.32666">
        <ele>102</ele>
        <time>2021-12-08T13:48:12.000Z</time>
      </trkpt>
      <trkpt lat="43.46871" lon="6.32675">
        <ele>101.8</ele>
        <time>2021-12-08T13:48:21.000Z</time>
      </trkpt>
      <trkpt lat="43.46878" lon="6.32683">
        <ele>101.7</ele>
        <time>2021-12-08T13:48:30.000Z</time>
      </trkpt>
      <trkpt lat="43.46885" lon="6.32691">
        <ele>101.5</ele>
        <time>2021-12-08T13:48:38.000Z</time>
      </trkpt>
      <trkpt lat="43.46894" lon="6.32692">
        <ele>101.2</ele>
        <time>2021-12-08T13:49:19.000Z</time>
      </trkpt>
      <trkpt lat="43.46904" lon="6.32694">
        <ele>101.3</ele>
        <time>2021-12-08T13:49:34.000Z</time>
      </trkpt>
      <trkpt lat="43.46911" lon="6.32704">
        <ele>101.3</ele>
        <time>2021-12-08T13:49:43.000Z</time>
      </trkpt>
      <trkpt lat="43.46919" lon="6.32713">
        <ele>101.2</ele>
        <time>2021-12-08T13:49:52.000Z</time>
      </trkpt>
      <trkpt lat="43.46925" lon="6.32722">
        <ele>101.1</ele>
        <time>2021-12-08T13:49:59.000Z</time>
      </trkpt>
      <trkpt lat="43.46933" lon="6.3273">
        <ele>101.3</ele>
        <time>2021-12-08T13:50:07.000Z</time>
      </trkpt>
      <trkpt lat="43.46939" lon="6.3274">
        <ele>101.7</ele>
        <time>2021-12-08T13:50:16.000Z</time>
      </trkpt>
      <trkpt lat="43.46949" lon="6.32744">
        <ele>102.1</ele>
        <time>2021-12-08T13:50:25.000Z</time>
      </trkpt>
      <trkpt lat="43.46952" lon="6.32756">
        <ele>102.3</ele>
        <time>2021-12-08T13:50:33.000Z</time>
      </trkpt>
      <trkpt lat="43.46952" lon="6.32769">
        <ele>102</ele>
        <time>2021-12-08T13:50:41.000Z</time>
      </trkpt>
      <trkpt lat="43.46952" lon="6.32782">
        <ele>101.5</ele>
        <time>2021-12-08T13:50:55.000Z</time>
      </trkpt>
      <trkpt lat="43.4695" lon="6.32795">
        <ele>100.1</ele>
        <time>2021-12-08T13:51:07.000Z</time>
      </trkpt>
      <trkpt lat="43.46944" lon="6.32805">
        <ele>99.1</ele>
        <time>2021-12-08T13:51:18.000Z</time>
      </trkpt>
      <trkpt lat="43.46939" lon="6.32818">
        <ele>98.8</ele>
        <time>2021-12-08T13:51:28.000Z</time>
      </trkpt>
      <trkpt lat="43.46944" lon="6.32829">
        <ele>98.7</ele>
        <time>2021-12-08T13:51:41.000Z</time>
      </trkpt>
      <trkpt lat="43.46953" lon="6.3283">
        <ele>98.8</ele>
        <time>2021-12-08T13:52:21.000Z</time>
      </trkpt>
      <trkpt lat="43.46945" lon="6.32838">
        <ele>99.1</ele>
        <time>2021-12-08T13:52:29.000Z</time>
      </trkpt>
      <trkpt lat="43.46945" lon="6.32851">
        <ele>100.4</ele>
        <time>2021-12-08T13:53:02.000Z</time>
      </trkpt>
      <trkpt lat="43.46947" lon="6.32865">
        <ele>102.9</ele>
        <time>2021-12-08T13:53:16.000Z</time>
      </trkpt>
      <trkpt lat="43.46953" lon="6.32875">
        <ele>104.5</ele>
        <time>2021-12-08T13:53:26.000Z</time>
      </trkpt>
      <trkpt lat="43.46959" lon="6.32884">
        <ele>106</ele>
        <time>2021-12-08T13:53:36.000Z</time>
      </trkpt>
      <trkpt lat="43.46962" lon="6.32896">
        <ele>107.7</ele>
        <time>2021-12-08T13:53:46.000Z</time>
      </trkpt>
      <trkpt lat="43.46967" lon="6.32908">
        <ele>109.3</ele>
        <time>2021-12-08T13:53:55.000Z</time>
      </trkpt>
      <trkpt lat="43.46971" lon="6.3292">
        <ele>110.7</ele>
        <time>2021-12-08T13:54:02.000Z</time>
      </trkpt>
      <trkpt lat="43.46975" lon="6.32933">
        <ele>112.3</ele>
        <time>2021-12-08T13:54:10.000Z</time>
      </trkpt>
      <trkpt lat="43.46979" lon="6.32944">
        <ele>113.4</ele>
        <time>2021-12-08T13:54:20.000Z</time>
      </trkpt>
      <trkpt lat="43.46984" lon="6.32955">
        <ele>114.7</ele>
        <time>2021-12-08T13:54:31.000Z</time>
      </trkpt>
      <trkpt lat="43.46992" lon="6.32963">
        <ele>115.4</ele>
        <time>2021-12-08T13:54:39.000Z</time>
      </trkpt>
      <trkpt lat="43.47" lon="6.3297">
        <ele>116</ele>
        <time>2021-12-08T13:54:48.000Z</time>
      </trkpt>
      <trkpt lat="43.47008" lon="6.32976">
        <ele>117.3</ele>
        <time>2021-12-08T13:54:57.000Z</time>
      </trkpt>
      <trkpt lat="43.47016" lon="6.32983">
        <ele>119.1</ele>
        <time>2021-12-08T13:55:10.000Z</time>
      </trkpt>
      <trkpt lat="43.47023" lon="6.32992">
        <ele>120</ele>
        <time>2021-12-08T13:55:17.000Z</time>
      </trkpt>
      <trkpt lat="43.47031" lon="6.32999">
        <ele>121.4</ele>
        <time>2021-12-08T13:55:26.000Z</time>
      </trkpt>
      <trkpt lat="43.47042" lon="6.32997">
        <ele>122.2</ele>
        <time>2021-12-08T13:55:32.000Z</time>
      </trkpt>
      <trkpt lat="43.47052" lon="6.32999">
        <ele>122.8</ele>
        <time>2021-12-08T13:55:39.000Z</time>
      </trkpt>
      <trkpt lat="43.4706" lon="6.33006">
        <ele>123.8</ele>
        <time>2021-12-08T13:55:46.000Z</time>
      </trkpt>
      <trkpt lat="43.47069" lon="6.33009">
        <ele>124.7</ele>
        <time>2021-12-08T13:55:56.000Z</time>
      </trkpt>
      <trkpt lat="43.47076" lon="6.33016">
        <ele>125.9</ele>
        <time>2021-12-08T13:56:05.000Z</time>
      </trkpt>
      <trkpt lat="43.47083" lon="6.33025">
        <ele>126.7</ele>
        <time>2021-12-08T13:56:12.000Z</time>
      </trkpt>
      <trkpt lat="43.47089" lon="6.33034">
        <ele>127.6</ele>
        <time>2021-12-08T13:56:22.000Z</time>
      </trkpt>
      <trkpt lat="43.47097" lon="6.3304">
        <ele>128.8</ele>
        <time>2021-12-08T13:56:31.000Z</time>
      </trkpt>
      <trkpt lat="43.47106" lon="6.33045">
        <ele>129.2</ele>
        <time>2021-12-08T13:56:38.000Z</time>
      </trkpt>
      <trkpt lat="43.47113" lon="6.33053">
        <ele>129.8</ele>
        <time>2021-12-08T13:56:45.000Z</time>
      </trkpt>
      <trkpt lat="43.47123" lon="6.33057">
        <ele>131.1</ele>
        <time>2021-12-08T13:56:53.000Z</time>
      </trkpt>
      <trkpt lat="43.47129" lon="6.33067">
        <ele>131.7</ele>
        <time>2021-12-08T13:56:58.000Z</time>
      </trkpt>
      <trkpt lat="43.47135" lon="6.33077">
        <ele>133.1</ele>
        <time>2021-12-08T13:57:08.000Z</time>
      </trkpt>
      <trkpt lat="43.4714" lon="6.33088">
        <ele>134.8</ele>
        <time>2021-12-08T13:57:16.000Z</time>
      </trkpt>
      <trkpt lat="43.47144" lon="6.331">
        <ele>135.5</ele>
        <time>2021-12-08T13:57:23.000Z</time>
      </trkpt>
      <trkpt lat="43.47149" lon="6.33111">
        <ele>136.4</ele>
        <time>2021-12-08T13:57:30.000Z</time>
      </trkpt>
      <trkpt lat="43.47154" lon="6.33122">
        <ele>137.2</ele>
        <time>2021-12-08T13:57:39.000Z</time>
      </trkpt>
      <trkpt lat="43.47156" lon="6.33136">
        <ele>138.4</ele>
        <time>2021-12-08T13:57:48.000Z</time>
      </trkpt>
      <trkpt lat="43.47153" lon="6.33149">
        <ele>139.6</ele>
        <time>2021-12-08T13:57:57.000Z</time>
      </trkpt>
      <trkpt lat="43.4715" lon="6.33161">
        <ele>140.6</ele>
        <time>2021-12-08T13:58:05.000Z</time>
      </trkpt>
      <trkpt lat="43.47143" lon="6.33171">
        <ele>141.4</ele>
        <time>2021-12-08T13:58:12.000Z</time>
      </trkpt>
      <trkpt lat="43.4714" lon="6.33183">
        <ele>142.8</ele>
        <time>2021-12-08T13:58:19.000Z</time>
      </trkpt>
      <trkpt lat="43.4714" lon="6.33196">
        <ele>143.6</ele>
        <time>2021-12-08T13:58:26.000Z</time>
      </trkpt>
      <trkpt lat="43.47138" lon="6.3321">
        <ele>145.1</ele>
        <time>2021-12-08T13:58:34.000Z</time>
      </trkpt>
      <trkpt lat="43.47134" lon="6.33222">
        <ele>146.6</ele>
        <time>2021-12-08T13:58:43.000Z</time>
      </trkpt>
      <trkpt lat="43.47132" lon="6.33235">
        <ele>148.3</ele>
        <time>2021-12-08T13:58:52.000Z</time>
      </trkpt>
      <trkpt lat="43.47131" lon="6.33248">
        <ele>149.1</ele>
        <time>2021-12-08T13:59:00.000Z</time>
      </trkpt>
      <trkpt lat="43.47125" lon="6.33258">
        <ele>149.9</ele>
        <time>2021-12-08T13:59:11.000Z</time>
      </trkpt>
      <trkpt lat="43.47116" lon="6.33254">
        <ele>149.8</ele>
        <time>2021-12-08T14:01:24.000Z</time>
      </trkpt>
      <trkpt lat="43.47123" lon="6.33264">
        <ele>149.7</ele>
        <time>2021-12-08T14:02:18.000Z</time>
      </trkpt>
      <trkpt lat="43.47128" lon="6.33274">
        <ele>150.4</ele>
        <time>2021-12-08T14:03:46.000Z</time>
      </trkpt>
      <trkpt lat="43.47135" lon="6.33283">
        <ele>150.5</ele>
        <time>2021-12-08T14:03:54.000Z</time>
      </trkpt>
      <trkpt lat="43.47137" lon="6.33295">
        <ele>151.5</ele>
        <time>2021-12-08T14:04:01.000Z</time>
      </trkpt>
      <trkpt lat="43.47141" lon="6.33308">
        <ele>152.7</ele>
        <time>2021-12-08T14:04:09.000Z</time>
      </trkpt>
      <trkpt lat="43.47144" lon="6.3332">
        <ele>154.1</ele>
        <time>2021-12-08T14:04:19.000Z</time>
      </trkpt>
      <trkpt lat="43.47147" lon="6.33332">
        <ele>155.7</ele>
        <time>2021-12-08T14:04:27.000Z</time>
      </trkpt>
      <trkpt lat="43.47154" lon="6.33341">
        <ele>156.8</ele>
        <time>2021-12-08T14:04:34.000Z</time>
      </trkpt>
      <trkpt lat="43.47159" lon="6.33351">
        <ele>158.3</ele>
        <time>2021-12-08T14:04:43.000Z</time>
      </trkpt>
      <trkpt lat="43.4716" lon="6.33364">
        <ele>160.8</ele>
        <time>2021-12-08T14:04:54.000Z</time>
      </trkpt>
      <trkpt lat="43.47165" lon="6.33375">
        <ele>162.6</ele>
        <time>2021-12-08T14:05:05.000Z</time>
      </trkpt>
      <trkpt lat="43.47173" lon="6.33384">
        <ele>163.6</ele>
        <time>2021-12-08T14:05:13.000Z</time>
      </trkpt>
      <trkpt lat="43.47179" lon="6.33395">
        <ele>164.7</ele>
        <time>2021-12-08T14:05:21.000Z</time>
      </trkpt>
      <trkpt lat="43.47188" lon="6.334">
        <ele>165.4</ele>
        <time>2021-12-08T14:05:31.000Z</time>
      </trkpt>
      <trkpt lat="43.47197" lon="6.33408">
        <ele>166.4</ele>
        <time>2021-12-08T14:05:39.000Z</time>
      </trkpt>
      <trkpt lat="43.47206" lon="6.33414">
        <ele>167.3</ele>
        <time>2021-12-08T14:05:49.000Z</time>
      </trkpt>
      <trkpt lat="43.47216" lon="6.33415">
        <ele>168.2</ele>
        <time>2021-12-08T14:05:57.000Z</time>
      </trkpt>
      <trkpt lat="43.47225" lon="6.3342">
        <ele>168.9</ele>
        <time>2021-12-08T14:06:07.000Z</time>
      </trkpt>
      <trkpt lat="43.47232" lon="6.33428">
        <ele>169.5</ele>
        <time>2021-12-08T14:06:15.000Z</time>
      </trkpt>
      <trkpt lat="43.47238" lon="6.33438">
        <ele>169.3</ele>
        <time>2021-12-08T14:06:22.000Z</time>
      </trkpt>
      <trkpt lat="43.47241" lon="6.3345">
        <ele>168.8</ele>
        <time>2021-12-08T14:06:29.000Z</time>
      </trkpt>
      <trkpt lat="43.47245" lon="6.33462">
        <ele>168.2</ele>
        <time>2021-12-08T14:06:38.000Z</time>
      </trkpt>
      <trkpt lat="43.47249" lon="6.33474">
        <ele>168</ele>
        <time>2021-12-08T14:06:49.000Z</time>
      </trkpt>
      <trkpt lat="43.47251" lon="6.33487">
        <ele>167.5</ele>
        <time>2021-12-08T14:06:58.000Z</time>
      </trkpt>
      <trkpt lat="43.47256" lon="6.33499">
        <ele>166.5</ele>
        <time>2021-12-08T14:07:07.000Z</time>
      </trkpt>
      <trkpt lat="43.47262" lon="6.3351">
        <ele>165.2</ele>
        <time>2021-12-08T14:07:15.000Z</time>
      </trkpt>
      <trkpt lat="43.47269" lon="6.33519">
        <ele>164</ele>
        <time>2021-12-08T14:07:25.000Z</time>
      </trkpt>
      <trkpt lat="43.47276" lon="6.33528">
        <ele>162.5</ele>
        <time>2021-12-08T14:07:33.000Z</time>
      </trkpt>
      <trkpt lat="43.47285" lon="6.33535">
        <ele>161.5</ele>
        <time>2021-12-08T14:07:42.000Z</time>
      </trkpt>
      <trkpt lat="43.47292" lon="6.33528">
        <ele>161.2</ele>
        <time>2021-12-08T14:07:53.000Z</time>
      </trkpt>
      <trkpt lat="43.47298" lon="6.33518">
        <ele>160.8</ele>
        <time>2021-12-08T14:08:02.000Z</time>
      </trkpt>
      <trkpt lat="43.47302" lon="6.33507">
        <ele>161.3</ele>
        <time>2021-12-08T14:08:11.000Z</time>
      </trkpt>
      <trkpt lat="43.47308" lon="6.33497">
        <ele>161</ele>
        <time>2021-12-08T14:08:32.000Z</time>
      </trkpt>
      <trkpt lat="43.473" lon="6.33502">
        <ele>160.9</ele>
        <time>2021-12-08T14:09:00.000Z</time>
      </trkpt>
      <trkpt lat="43.47297" lon="6.33515">
        <ele>161</ele>
        <time>2021-12-08T14:09:13.000Z</time>
      </trkpt>
      <trkpt lat="43.47293" lon="6.33525">
        <ele>161.2</ele>
        <time>2021-12-08T14:09:24.000Z</time>
      </trkpt>
      <trkpt lat="43.47286" lon="6.33534">
        <ele>160.8</ele>
        <time>2021-12-08T14:09:48.000Z</time>
      </trkpt>
      <trkpt lat="43.4729" lon="6.33545">
        <ele>160</ele>
        <time>2021-12-08T14:10:20.000Z</time>
      </trkpt>
      <trkpt lat="43.47296" lon="6.33554">
        <ele>159.3</ele>
        <time>2021-12-08T14:10:30.000Z</time>
      </trkpt>
      <trkpt lat="43.47303" lon="6.33563">
        <ele>158.6</ele>
        <time>2021-12-08T14:10:42.000Z</time>
      </trkpt>
      <trkpt lat="43.47308" lon="6.33574">
        <ele>156.4</ele>
        <time>2021-12-08T14:10:54.000Z</time>
      </trkpt>
      <trkpt lat="43.47314" lon="6.33583">
        <ele>154.9</ele>
        <time>2021-12-08T14:11:04.000Z</time>
      </trkpt>
      <trkpt lat="43.4732" lon="6.33594">
        <ele>153.8</ele>
        <time>2021-12-08T14:11:13.000Z</time>
      </trkpt>
      <trkpt lat="43.47325" lon="6.33605">
        <ele>152.4</ele>
        <time>2021-12-08T14:11:23.000Z</time>
      </trkpt>
      <trkpt lat="43.47331" lon="6.33615">
        <ele>151.1</ele>
        <time>2021-12-08T14:11:32.000Z</time>
      </trkpt>
      <trkpt lat="43.47336" lon="6.33626">
        <ele>149.8</ele>
        <time>2021-12-08T14:11:40.000Z</time>
      </trkpt>
      <trkpt lat="43.47341" lon="6.33636">
        <ele>149.3</ele>
        <time>2021-12-08T14:11:49.000Z</time>
      </trkpt>
      <trkpt lat="43.47348" lon="6.33645">
        <ele>148.9</ele>
        <time>2021-12-08T14:12:00.000Z</time>
      </trkpt>
      <trkpt lat="43.47356" lon="6.33652">
        <ele>149.2</ele>
        <time>2021-12-08T14:12:06.000Z</time>
      </trkpt>
      <trkpt lat="43.47366" lon="6.33655">
        <ele>149.5</ele>
        <time>2021-12-08T14:12:14.000Z</time>
      </trkpt>
      <trkpt lat="43.47375" lon="6.33656">
        <ele>149.8</ele>
        <time>2021-12-08T14:12:27.000Z</time>
      </trkpt>
      <trkpt lat="43.47384" lon="6.33658">
        <ele>150.4</ele>
        <time>2021-12-08T14:12:36.000Z</time>
      </trkpt>
      <trkpt lat="43.47394" lon="6.3366">
        <ele>152.1</ele>
        <time>2021-12-08T14:12:49.000Z</time>
      </trkpt>
      <trkpt lat="43.47404" lon="6.3366">
        <ele>153.3</ele>
        <time>2021-12-08T14:12:58.000Z</time>
      </trkpt>
      <trkpt lat="43.47413" lon="6.3366">
        <ele>154.6</ele>
        <time>2021-12-08T14:13:08.000Z</time>
      </trkpt>
      <trkpt lat="43.47422" lon="6.33659">
        <ele>155.6</ele>
        <time>2021-12-08T14:13:19.000Z</time>
      </trkpt>
      <trkpt lat="43.47431" lon="6.33656">
        <ele>155.9</ele>
        <time>2021-12-08T14:13:22.000Z</time>
      </trkpt>
      <trkpt lat="43.47441" lon="6.3366">
        <ele>156.3</ele>
        <time>2021-12-08T14:13:35.000Z</time>
      </trkpt>
      <trkpt lat="43.47449" lon="6.33668">
        <ele>156.7</ele>
        <time>2021-12-08T14:13:45.000Z</time>
      </trkpt>
      <trkpt lat="43.47458" lon="6.33674">
        <ele>156.5</ele>
        <time>2021-12-08T14:13:54.000Z</time>
      </trkpt>
      <trkpt lat="43.47465" lon="6.33682">
        <ele>156.4</ele>
        <time>2021-12-08T14:14:02.000Z</time>
      </trkpt>
      <trkpt lat="43.4747" lon="6.33693">
        <ele>156.3</ele>
        <time>2021-12-08T14:14:11.000Z</time>
      </trkpt>
      <trkpt lat="43.47476" lon="6.33703">
        <ele>156</ele>
        <time>2021-12-08T14:14:21.000Z</time>
      </trkpt>
      <trkpt lat="43.47482" lon="6.33713">
        <ele>155.1</ele>
        <time>2021-12-08T14:14:29.000Z</time>
      </trkpt>
      <trkpt lat="43.47487" lon="6.33723">
        <ele>154.8</ele>
        <time>2021-12-08T14:14:36.000Z</time>
      </trkpt>
      <trkpt lat="43.47493" lon="6.33733">
        <ele>154.5</ele>
        <time>2021-12-08T14:14:45.000Z</time>
      </trkpt>
      <trkpt lat="43.47501" lon="6.33742">
        <ele>153.5</ele>
        <time>2021-12-08T14:14:58.000Z</time>
      </trkpt>
      <trkpt lat="43.47507" lon="6.33751">
        <ele>152.4</ele>
        <time>2021-12-08T14:15:10.000Z</time>
      </trkpt>
      <trkpt lat="43.4751" lon="6.33764">
        <ele>152</ele>
        <time>2021-12-08T14:15:20.000Z</time>
      </trkpt>
      <trkpt lat="43.47514" lon="6.33777">
        <ele>151.6</ele>
        <time>2021-12-08T14:15:30.000Z</time>
      </trkpt>
      <trkpt lat="43.4752" lon="6.33787">
        <ele>151.4</ele>
        <time>2021-12-08T14:15:38.000Z</time>
      </trkpt>
      <trkpt lat="43.47528" lon="6.33797">
        <ele>151.3</ele>
        <time>2021-12-08T14:15:47.000Z</time>
      </trkpt>
      <trkpt lat="43.47536" lon="6.33803">
        <ele>151.2</ele>
        <time>2021-12-08T14:15:57.000Z</time>
      </trkpt>
      <trkpt lat="43.47545" lon="6.33807">
        <ele>151.3</ele>
        <time>2021-12-08T14:16:05.000Z</time>
      </trkpt>
      <trkpt lat="43.47554" lon="6.33811">
        <ele>150.6</ele>
        <time>2021-12-08T14:16:15.000Z</time>
      </trkpt>
      <trkpt lat="43.47561" lon="6.33819">
        <ele>149.8</ele>
        <time>2021-12-08T14:16:21.000Z</time>
      </trkpt>
      <trkpt lat="43.47568" lon="6.33828">
        <ele>148.5</ele>
        <time>2021-12-08T14:16:28.000Z</time>
      </trkpt>
      <trkpt lat="43.47576" lon="6.33837">
        <ele>147.7</ele>
        <time>2021-12-08T14:16:36.000Z</time>
      </trkpt>
      <trkpt lat="43.47584" lon="6.33845">
        <ele>147.4</ele>
        <time>2021-12-08T14:16:44.000Z</time>
      </trkpt>
      <trkpt lat="43.47593" lon="6.33849">
        <ele>148.1</ele>
        <time>2021-12-08T14:16:55.000Z</time>
      </trkpt>
      <trkpt lat="43.47602" lon="6.33849">
        <ele>149.2</ele>
        <time>2021-12-08T14:17:05.000Z</time>
      </trkpt>
      <trkpt lat="43.47611" lon="6.33848">
        <ele>149.9</ele>
        <time>2021-12-08T14:17:12.000Z</time>
      </trkpt>
      <trkpt lat="43.4762" lon="6.33844">
        <ele>150.4</ele>
        <time>2021-12-08T14:17:17.000Z</time>
      </trkpt>
      <trkpt lat="43.4763" lon="6.33843">
        <ele>151.5</ele>
        <time>2021-12-08T14:17:25.000Z</time>
      </trkpt>
      <trkpt lat="43.47639" lon="6.33847">
        <ele>153</ele>
        <time>2021-12-08T14:17:34.000Z</time>
      </trkpt>
      <trkpt lat="43.47647" lon="6.33854">
        <ele>154.7</ele>
        <time>2021-12-08T14:17:45.000Z</time>
      </trkpt>
      <trkpt lat="43.47654" lon="6.33861">
        <ele>156.3</ele>
        <time>2021-12-08T14:17:54.000Z</time>
      </trkpt>
      <trkpt lat="43.47663" lon="6.33868">
        <ele>157.5</ele>
        <time>2021-12-08T14:18:02.000Z</time>
      </trkpt>
      <trkpt lat="43.47672" lon="6.3387">
        <ele>158.2</ele>
        <time>2021-12-08T14:18:08.000Z</time>
      </trkpt>
      <trkpt lat="43.47682" lon="6.33875">
        <ele>159.6</ele>
        <time>2021-12-08T14:18:19.000Z</time>
      </trkpt>
      <trkpt lat="43.47691" lon="6.3388">
        <ele>160.4</ele>
        <time>2021-12-08T14:18:27.000Z</time>
      </trkpt>
      <trkpt lat="43.477" lon="6.33885">
        <ele>161.4</ele>
        <time>2021-12-08T14:18:35.000Z</time>
      </trkpt>
      <trkpt lat="43.47708" lon="6.33892">
        <ele>162.5</ele>
        <time>2021-12-08T14:18:43.000Z</time>
      </trkpt>
      <trkpt lat="43.47715" lon="6.339">
        <ele>163.8</ele>
        <time>2021-12-08T14:18:52.000Z</time>
      </trkpt>
      <trkpt lat="43.47722" lon="6.33908">
        <ele>165.1</ele>
        <time>2021-12-08T14:18:59.000Z</time>
      </trkpt>
      <trkpt lat="43.47729" lon="6.33918">
        <ele>166.9</ele>
        <time>2021-12-08T14:19:08.000Z</time>
      </trkpt>
      <trkpt lat="43.47736" lon="6.33925">
        <ele>168.9</ele>
        <time>2021-12-08T14:19:19.000Z</time>
      </trkpt>
      <trkpt lat="43.47746" lon="6.33933">
        <ele>170.4</ele>
        <time>2021-12-08T14:19:28.000Z</time>
      </trkpt>
      <trkpt lat="43.47755" lon="6.33939">
        <ele>172.1</ele>
        <time>2021-12-08T14:19:37.000Z</time>
      </trkpt>
      <trkpt lat="43.47763" lon="6.33946">
        <ele>173.6</ele>
        <time>2021-12-08T14:19:46.000Z</time>
      </trkpt>
      <trkpt lat="43.47773" lon="6.3395">
        <ele>174.6</ele>
        <time>2021-12-08T14:19:52.000Z</time>
      </trkpt>
      <trkpt lat="43.47782" lon="6.33952">
        <ele>175.5</ele>
        <time>2021-12-08T14:19:57.000Z</time>
      </trkpt>
      <trkpt lat="43.47792" lon="6.33955">
        <ele>176.5</ele>
        <time>2021-12-08T14:20:05.000Z</time>
      </trkpt>
      <trkpt lat="43.47801" lon="6.33958">
        <ele>177.9</ele>
        <time>2021-12-08T14:20:15.000Z</time>
      </trkpt>
      <trkpt lat="43.4781" lon="6.33962">
        <ele>178.5</ele>
        <time>2021-12-08T14:20:23.000Z</time>
      </trkpt>
      <trkpt lat="43.47818" lon="6.33969">
        <ele>179.2</ele>
        <time>2021-12-08T14:20:33.000Z</time>
      </trkpt>
      <trkpt lat="43.47827" lon="6.33973">
        <ele>180</ele>
        <time>2021-12-08T14:20:42.000Z</time>
      </trkpt>
      <trkpt lat="43.47836" lon="6.33971">
        <ele>180.7</ele>
        <time>2021-12-08T14:20:47.000Z</time>
      </trkpt>
      <trkpt lat="43.47847" lon="6.33975">
        <ele>181.7</ele>
        <time>2021-12-08T14:20:56.000Z</time>
      </trkpt>
      <trkpt lat="43.47856" lon="6.33973">
        <ele>183</ele>
        <time>2021-12-08T14:21:05.000Z</time>
      </trkpt>
      <trkpt lat="43.47865" lon="6.33972">
        <ele>183.8</ele>
        <time>2021-12-08T14:21:12.000Z</time>
      </trkpt>
      <trkpt lat="43.47874" lon="6.33973">
        <ele>185.8</ele>
        <time>2021-12-08T14:21:22.000Z</time>
      </trkpt>
      <trkpt lat="43.47884" lon="6.33973">
        <ele>187.8</ele>
        <time>2021-12-08T14:21:32.000Z</time>
      </trkpt>
      <trkpt lat="43.47893" lon="6.33975">
        <ele>189</ele>
        <time>2021-12-08T14:21:39.000Z</time>
      </trkpt>
      <trkpt lat="43.47903" lon="6.33975">
        <ele>190.7</ele>
        <time>2021-12-08T14:21:48.000Z</time>
      </trkpt>
      <trkpt lat="43.47913" lon="6.33977">
        <ele>192.4</ele>
        <time>2021-12-08T14:21:57.000Z</time>
      </trkpt>
      <trkpt lat="43.47922" lon="6.3398">
        <ele>194.6</ele>
        <time>2021-12-08T14:22:07.000Z</time>
      </trkpt>
      <trkpt lat="43.47931" lon="6.33985">
        <ele>195.6</ele>
        <time>2021-12-08T14:22:16.000Z</time>
      </trkpt>
      <trkpt lat="43.47939" lon="6.33993">
        <ele>197.2</ele>
        <time>2021-12-08T14:22:28.000Z</time>
      </trkpt>
      <trkpt lat="43.47946" lon="6.34001">
        <ele>197.7</ele>
        <time>2021-12-08T14:22:40.000Z</time>
      </trkpt>
      <trkpt lat="43.47953" lon="6.34011">
        <ele>198.4</ele>
        <time>2021-12-08T14:22:51.000Z</time>
      </trkpt>
      <trkpt lat="43.47959" lon="6.34021">
        <ele>199.2</ele>
        <time>2021-12-08T14:23:00.000Z</time>
      </trkpt>
      <trkpt lat="43.47964" lon="6.34032">
        <ele>199.8</ele>
        <time>2021-12-08T14:23:09.000Z</time>
      </trkpt>
      <trkpt lat="43.47969" lon="6.34043">
        <ele>200.2</ele>
        <time>2021-12-08T14:23:17.000Z</time>
      </trkpt>
      <trkpt lat="43.47974" lon="6.34056">
        <ele>200.8</ele>
        <time>2021-12-08T14:23:26.000Z</time>
      </trkpt>
      <trkpt lat="43.47981" lon="6.34066">
        <ele>201.7</ele>
        <time>2021-12-08T14:23:34.000Z</time>
      </trkpt>
      <trkpt lat="43.47987" lon="6.34076">
        <ele>202.9</ele>
        <time>2021-12-08T14:23:42.000Z</time>
      </trkpt>
      <trkpt lat="43.47994" lon="6.34084">
        <ele>203.8</ele>
        <time>2021-12-08T14:23:51.000Z</time>
      </trkpt>
      <trkpt lat="43.48002" lon="6.34093">
        <ele>204.3</ele>
        <time>2021-12-08T14:23:59.000Z</time>
      </trkpt>
      <trkpt lat="43.48011" lon="6.341">
        <ele>204.5</ele>
        <time>2021-12-08T14:24:08.000Z</time>
      </trkpt>
      <trkpt lat="43.48018" lon="6.34107">
        <ele>205.3</ele>
        <time>2021-12-08T14:24:17.000Z</time>
      </trkpt>
      <trkpt lat="43.48026" lon="6.34115">
        <ele>205.5</ele>
        <time>2021-12-08T14:24:25.000Z</time>
      </trkpt>
      <trkpt lat="43.48034" lon="6.34123">
        <ele>205.5</ele>
        <time>2021-12-08T14:24:34.000Z</time>
      </trkpt>
      <trkpt lat="43.48041" lon="6.34131">
        <ele>204.3</ele>
        <time>2021-12-08T14:25:16.000Z</time>
      </trkpt>
      <trkpt lat="43.48047" lon="6.34141">
        <ele>203.8</ele>
        <time>2021-12-08T14:25:36.000Z</time>
      </trkpt>
      <trkpt lat="43.48052" lon="6.34151">
        <ele>202.4</ele>
        <time>2021-12-08T14:26:06.000Z</time>
      </trkpt>
      <trkpt lat="43.48056" lon="6.34163">
        <ele>201.3</ele>
        <time>2021-12-08T14:26:20.000Z</time>
      </trkpt>
      <trkpt lat="43.48059" lon="6.34176">
        <ele>200.2</ele>
        <time>2021-12-08T14:26:31.000Z</time>
      </trkpt>
      <trkpt lat="43.48068" lon="6.34175">
        <ele>199.1</ele>
        <time>2021-12-08T14:26:42.000Z</time>
      </trkpt>
      <trkpt lat="43.48077" lon="6.34172">
        <ele>197.7</ele>
        <time>2021-12-08T14:26:53.000Z</time>
      </trkpt>
      <trkpt lat="43.48087" lon="6.34173">
        <ele>196.3</ele>
        <time>2021-12-08T14:27:03.000Z</time>
      </trkpt>
      <trkpt lat="43.48096" lon="6.34174">
        <ele>194.7</ele>
        <time>2021-12-08T14:27:12.000Z</time>
      </trkpt>
      <trkpt lat="43.48106" lon="6.34178">
        <ele>193</ele>
        <time>2021-12-08T14:27:20.000Z</time>
      </trkpt>
      <trkpt lat="43.48115" lon="6.34182">
        <ele>191.3</ele>
        <time>2021-12-08T14:27:28.000Z</time>
      </trkpt>
      <trkpt lat="43.48122" lon="6.34192">
        <ele>189.5</ele>
        <time>2021-12-08T14:27:36.000Z</time>
      </trkpt>
      <trkpt lat="43.48128" lon="6.34202">
        <ele>187.6</ele>
        <time>2021-12-08T14:27:45.000Z</time>
      </trkpt>
      <trkpt lat="43.48135" lon="6.34211">
        <ele>185.6</ele>
        <time>2021-12-08T14:27:54.000Z</time>
      </trkpt>
      <trkpt lat="43.48141" lon="6.34221">
        <ele>183.9</ele>
        <time>2021-12-08T14:28:03.000Z</time>
      </trkpt>
      <trkpt lat="43.48147" lon="6.34232">
        <ele>182</ele>
        <time>2021-12-08T14:28:12.000Z</time>
      </trkpt>
      <trkpt lat="43.48154" lon="6.34242">
        <ele>180.1</ele>
        <time>2021-12-08T14:28:22.000Z</time>
      </trkpt>
      <trkpt lat="43.48161" lon="6.3425">
        <ele>178.6</ele>
        <time>2021-12-08T14:28:33.000Z</time>
      </trkpt>
      <trkpt lat="43.48166" lon="6.3426">
        <ele>176.9</ele>
        <time>2021-12-08T14:28:42.000Z</time>
      </trkpt>
      <trkpt lat="43.48173" lon="6.3427">
        <ele>175.4</ele>
        <time>2021-12-08T14:28:54.000Z</time>
      </trkpt>
      <trkpt lat="43.48179" lon="6.34278">
        <ele>174</ele>
        <time>2021-12-08T14:29:03.000Z</time>
      </trkpt>
      <trkpt lat="43.48187" lon="6.34285">
        <ele>171.8</ele>
        <time>2021-12-08T14:29:12.000Z</time>
      </trkpt>
      <trkpt lat="43.48193" lon="6.34295">
        <ele>170.4</ele>
        <time>2021-12-08T14:29:21.000Z</time>
      </trkpt>
      <trkpt lat="43.482" lon="6.34305">
        <ele>169.2</ele>
        <time>2021-12-08T14:29:32.000Z</time>
      </trkpt>
      <trkpt lat="43.4821" lon="6.34306">
        <ele>168.1</ele>
        <time>2021-12-08T14:30:11.000Z</time>
      </trkpt>
      <trkpt lat="43.48218" lon="6.34299">
        <ele>168.2</ele>
        <time>2021-12-08T14:30:22.000Z</time>
      </trkpt>
      <trkpt lat="43.48227" lon="6.34294">
        <ele>168.3</ele>
        <time>2021-12-08T14:30:31.000Z</time>
      </trkpt>
      <trkpt lat="43.48234" lon="6.34285">
        <ele>168.5</ele>
        <time>2021-12-08T14:30:40.000Z</time>
      </trkpt>
      <trkpt lat="43.48242" lon="6.34277">
        <ele>169</ele>
        <time>2021-12-08T14:30:48.000Z</time>
      </trkpt>
      <trkpt lat="43.4825" lon="6.34269">
        <ele>169.3</ele>
        <time>2021-12-08T14:30:57.000Z</time>
      </trkpt>
      <trkpt lat="43.48258" lon="6.34264">
        <ele>169.2</ele>
        <time>2021-12-08T14:31:05.000Z</time>
      </trkpt>
      <trkpt lat="43.48265" lon="6.34256">
        <ele>169.3</ele>
        <time>2021-12-08T14:31:12.000Z</time>
      </trkpt>
      <trkpt lat="43.48272" lon="6.34247">
        <ele>169.5</ele>
        <time>2021-12-08T14:31:19.000Z</time>
      </trkpt>
      <trkpt lat="43.48278" lon="6.34238">
        <ele>170.3</ele>
        <time>2021-12-08T14:31:28.000Z</time>
      </trkpt>
      <trkpt lat="43.48284" lon="6.34228">
        <ele>172.1</ele>
        <time>2021-12-08T14:31:36.000Z</time>
      </trkpt>
      <trkpt lat="43.48288" lon="6.34217">
        <ele>173</ele>
        <time>2021-12-08T14:31:44.000Z</time>
      </trkpt>
      <trkpt lat="43.48294" lon="6.34208">
        <ele>173.4</ele>
        <time>2021-12-08T14:31:52.000Z</time>
      </trkpt>
      <trkpt lat="43.48301" lon="6.342">
        <ele>173.4</ele>
        <time>2021-12-08T14:32:00.000Z</time>
      </trkpt>
      <trkpt lat="43.48306" lon="6.34189">
        <ele>173.7</ele>
        <time>2021-12-08T14:32:07.000Z</time>
      </trkpt>
      <trkpt lat="43.48313" lon="6.34182">
        <ele>175</ele>
        <time>2021-12-08T14:32:17.000Z</time>
      </trkpt>
      <trkpt lat="43.48322" lon="6.34174">
        <ele>176.7</ele>
        <time>2021-12-08T14:32:25.000Z</time>
      </trkpt>
      <trkpt lat="43.4833" lon="6.34168">
        <ele>178.2</ele>
        <time>2021-12-08T14:32:34.000Z</time>
      </trkpt>
      <trkpt lat="43.48336" lon="6.34158">
        <ele>179.1</ele>
        <time>2021-12-08T14:32:44.000Z</time>
      </trkpt>
      <trkpt lat="43.48343" lon="6.34149">
        <ele>179.4</ele>
        <time>2021-12-08T14:32:53.000Z</time>
      </trkpt>
      <trkpt lat="43.48348" lon="6.34138">
        <ele>179.6</ele>
        <time>2021-12-08T14:33:00.000Z</time>
      </trkpt>
      <trkpt lat="43.48353" lon="6.34127">
        <ele>179.8</ele>
        <time>2021-12-08T14:33:08.000Z</time>
      </trkpt>
      <trkpt lat="43.48361" lon="6.34121">
        <ele>179.8</ele>
        <time>2021-12-08T14:33:16.000Z</time>
      </trkpt>
      <trkpt lat="43.48369" lon="6.34113">
        <ele>180.1</ele>
        <time>2021-12-08T14:33:24.000Z</time>
      </trkpt>
      <trkpt lat="43.48378" lon="6.34109">
        <ele>180</ele>
        <time>2021-12-08T14:33:32.000Z</time>
      </trkpt>
      <trkpt lat="43.48387" lon="6.34103">
        <ele>180.3</ele>
        <time>2021-12-08T14:33:40.000Z</time>
      </trkpt>
      <trkpt lat="43.48393" lon="6.34093">
        <ele>181.4</ele>
        <time>2021-12-08T14:33:49.000Z</time>
      </trkpt>
      <trkpt lat="43.48399" lon="6.34082">
        <ele>181.8</ele>
        <time>2021-12-08T14:33:57.000Z</time>
      </trkpt>
      <trkpt lat="43.48405" lon="6.3407">
        <ele>182.9</ele>
        <time>2021-12-08T14:34:06.000Z</time>
      </trkpt>
      <trkpt lat="43.48409" lon="6.34058">
        <ele>184.2</ele>
        <time>2021-12-08T14:34:12.000Z</time>
      </trkpt>
      <trkpt lat="43.4841" lon="6.34046">
        <ele>185.5</ele>
        <time>2021-12-08T14:34:21.000Z</time>
      </trkpt>
      <trkpt lat="43.48412" lon="6.34033">
        <ele>186.5</ele>
        <time>2021-12-08T14:34:30.000Z</time>
      </trkpt>
      <trkpt lat="43.48412" lon="6.34021">
        <ele>186.8</ele>
        <time>2021-12-08T14:34:51.000Z</time>
      </trkpt>
      <trkpt lat="43.48414" lon="6.34008">
        <ele>187.4</ele>
        <time>2021-12-08T14:35:02.000Z</time>
      </trkpt>
      <trkpt lat="43.48419" lon="6.33995">
        <ele>187.5</ele>
        <time>2021-12-08T14:35:11.000Z</time>
      </trkpt>
      <trkpt lat="43.4842" lon="6.33983">
        <ele>187.5</ele>
        <time>2021-12-08T14:35:19.000Z</time>
      </trkpt>
      <trkpt lat="43.4842" lon="6.33969">
        <ele>187.2</ele>
        <time>2021-12-08T14:35:29.000Z</time>
      </trkpt>
      <trkpt lat="43.48419" lon="6.33955">
        <ele>187.1</ele>
        <time>2021-12-08T14:35:37.000Z</time>
      </trkpt>
      <trkpt lat="43.48416" lon="6.33942">
        <ele>186.8</ele>
        <time>2021-12-08T14:35:45.000Z</time>
      </trkpt>
      <trkpt lat="43.48412" lon="6.3393">
        <ele>186.8</ele>
        <time>2021-12-08T14:35:52.000Z</time>
      </trkpt>
      <trkpt lat="43.48408" lon="6.33917">
        <ele>187.1</ele>
        <time>2021-12-08T14:35:59.000Z</time>
      </trkpt>
      <trkpt lat="43.48403" lon="6.33906">
        <ele>187.1</ele>
        <time>2021-12-08T14:36:07.000Z</time>
      </trkpt>
      <trkpt lat="43.48402" lon="6.33893">
        <ele>186.7</ele>
        <time>2021-12-08T14:36:14.000Z</time>
      </trkpt>
      <trkpt lat="43.48403" lon="6.33879">
        <ele>185.8</ele>
        <time>2021-12-08T14:36:22.000Z</time>
      </trkpt>
      <trkpt lat="43.48403" lon="6.33866">
        <ele>184.9</ele>
        <time>2021-12-08T14:36:30.000Z</time>
      </trkpt>
      <trkpt lat="43.48396" lon="6.33856">
        <ele>184.6</ele>
        <time>2021-12-08T14:36:38.000Z</time>
      </trkpt>
      <trkpt lat="43.48387" lon="6.3385">
        <ele>184.4</ele>
        <time>2021-12-08T14:36:47.000Z</time>
      </trkpt>
      <trkpt lat="43.48377" lon="6.33845">
        <ele>183.6</ele>
        <time>2021-12-08T14:36:54.000Z</time>
      </trkpt>
      <trkpt lat="43.48368" lon="6.33841">
        <ele>182.3</ele>
        <time>2021-12-08T14:37:00.000Z</time>
      </trkpt>
      <trkpt lat="43.48361" lon="6.33831">
        <ele>180</ele>
        <time>2021-12-08T14:37:09.000Z</time>
      </trkpt>
      <trkpt lat="43.48362" lon="6.33817">
        <ele>178.3</ele>
        <time>2021-12-08T14:37:17.000Z</time>
      </trkpt>
      <trkpt lat="43.48364" lon="6.33804">
        <ele>177.3</ele>
        <time>2021-12-08T14:37:25.000Z</time>
      </trkpt>
      <trkpt lat="43.48364" lon="6.3379">
        <ele>176</ele>
        <time>2021-12-08T14:37:34.000Z</time>
      </trkpt>
      <trkpt lat="43.48366" lon="6.33776">
        <ele>174.9</ele>
        <time>2021-12-08T14:37:42.000Z</time>
      </trkpt>
      <trkpt lat="43.4837" lon="6.33762">
        <ele>173.3</ele>
        <time>2021-12-08T14:37:50.000Z</time>
      </trkpt>
      <trkpt lat="43.48373" lon="6.3375">
        <ele>172.3</ele>
        <time>2021-12-08T14:37:57.000Z</time>
      </trkpt>
      <trkpt lat="43.48375" lon="6.33738">
        <ele>170.9</ele>
        <time>2021-12-08T14:38:04.000Z</time>
      </trkpt>
      <trkpt lat="43.4838" lon="6.33726">
        <ele>169.6</ele>
        <time>2021-12-08T14:38:11.000Z</time>
      </trkpt>
      <trkpt lat="43.48381" lon="6.33714">
        <ele>168</ele>
        <time>2021-12-08T14:38:18.000Z</time>
      </trkpt>
      <trkpt lat="43.48375" lon="6.33704">
        <ele>166.9</ele>
        <time>2021-12-08T14:38:25.000Z</time>
      </trkpt>
      <trkpt lat="43.48368" lon="6.33695">
        <ele>166.9</ele>
        <time>2021-12-08T14:38:35.000Z</time>
      </trkpt>
      <trkpt lat="43.48363" lon="6.33684">
        <ele>167.1</ele>
        <time>2021-12-08T14:38:50.000Z</time>
      </trkpt>
      <trkpt lat="43.48363" lon="6.3367">
        <ele>168.4</ele>
        <time>2021-12-08T14:39:02.000Z</time>
      </trkpt>
      <trkpt lat="43.48357" lon="6.33661">
        <ele>169.2</ele>
        <time>2021-12-08T14:39:13.000Z</time>
      </trkpt>
      <trkpt lat="43.48349" lon="6.33654">
        <ele>168.9</ele>
        <time>2021-12-08T14:39:22.000Z</time>
      </trkpt>
      <trkpt lat="43.48339" lon="6.33656">
        <ele>168.6</ele>
        <time>2021-12-08T14:39:31.000Z</time>
      </trkpt>
      <trkpt lat="43.4833" lon="6.33657">
        <ele>167.7</ele>
        <time>2021-12-08T14:39:44.000Z</time>
      </trkpt>
      <trkpt lat="43.48322" lon="6.33665">
        <ele>167.1</ele>
        <time>2021-12-08T14:40:29.000Z</time>
      </trkpt>
      <trkpt lat="43.48329" lon="6.33657">
        <ele>167.3</ele>
        <time>2021-12-08T14:44:34.000Z</time>
      </trkpt>
      <trkpt lat="43.48339" lon="6.33656">
        <ele>168</ele>
        <time>2021-12-08T14:44:49.000Z</time>
      </trkpt>
      <trkpt lat="43.48349" lon="6.3366">
        <ele>168.4</ele>
        <time>2021-12-08T14:44:59.000Z</time>
      </trkpt>
      <trkpt lat="43.48356" lon="6.33668">
        <ele>168.8</ele>
        <time>2021-12-08T14:45:08.000Z</time>
      </trkpt>
      <trkpt lat="43.48358" lon="6.3368">
        <ele>168.1</ele>
        <time>2021-12-08T14:45:18.000Z</time>
      </trkpt>
      <trkpt lat="43.48361" lon="6.33692">
        <ele>167</ele>
        <time>2021-12-08T14:45:26.000Z</time>
      </trkpt>
      <trkpt lat="43.48361" lon="6.33705">
        <ele>166.5</ele>
        <time>2021-12-08T14:45:46.000Z</time>
      </trkpt>
      <trkpt lat="43.48354" lon="6.33716">
        <ele>166.1</ele>
        <time>2021-12-08T14:45:57.000Z</time>
      </trkpt>
      <trkpt lat="43.48363" lon="6.33714">
        <ele>166.3</ele>
        <time>2021-12-08T14:46:54.000Z</time>
      </trkpt>
      <trkpt lat="43.48372" lon="6.33708">
        <ele>166.6</ele>
        <time>2021-12-08T14:47:05.000Z</time>
      </trkpt>
      <trkpt lat="43.48381" lon="6.33704">
        <ele>166.1</ele>
        <time>2021-12-08T14:47:43.000Z</time>
      </trkpt>
      <trkpt lat="43.4838" lon="6.33716">
        <ele>167.4</ele>
        <time>2021-12-08T14:48:12.000Z</time>
      </trkpt>
      <trkpt lat="43.48373" lon="6.33724">
        <ele>169.4</ele>
        <time>2021-12-08T14:48:24.000Z</time>
      </trkpt>
      <trkpt lat="43.48368" lon="6.33736">
        <ele>171</ele>
        <time>2021-12-08T14:48:34.000Z</time>
      </trkpt>
      <trkpt lat="43.48365" lon="6.33749">
        <ele>172.2</ele>
        <time>2021-12-08T14:48:42.000Z</time>
      </trkpt>
      <trkpt lat="43.48362" lon="6.33762">
        <ele>173.2</ele>
        <time>2021-12-08T14:48:50.000Z</time>
      </trkpt>
      <trkpt lat="43.48361" lon="6.33775">
        <ele>174.3</ele>
        <time>2021-12-08T14:49:00.000Z</time>
      </trkpt>
      <trkpt lat="43.48362" lon="6.33788">
        <ele>175.1</ele>
        <time>2021-12-08T14:49:10.000Z</time>
      </trkpt>
      <trkpt lat="43.48358" lon="6.33799">
        <ele>176.2</ele>
        <time>2021-12-08T14:49:20.000Z</time>
      </trkpt>
      <trkpt lat="43.48354" lon="6.33812">
        <ele>177.2</ele>
        <time>2021-12-08T14:49:30.000Z</time>
      </trkpt>
      <trkpt lat="43.48353" lon="6.33825">
        <ele>178.7</ele>
        <time>2021-12-08T14:49:40.000Z</time>
      </trkpt>
      <trkpt lat="43.48348" lon="6.33836">
        <ele>178.9</ele>
        <time>2021-12-08T14:49:59.000Z</time>
      </trkpt>
      <trkpt lat="43.48339" lon="6.3384">
        <ele>177.5</ele>
        <time>2021-12-08T14:50:08.000Z</time>
      </trkpt>
      <trkpt lat="43.48331" lon="6.33847">
        <ele>176.2</ele>
        <time>2021-12-08T14:50:17.000Z</time>
      </trkpt>
      <trkpt lat="43.48323" lon="6.33854">
        <ele>174.9</ele>
        <time>2021-12-08T14:50:26.000Z</time>
      </trkpt>
      <trkpt lat="43.48316" lon="6.33862">
        <ele>173.8</ele>
        <time>2021-12-08T14:50:33.000Z</time>
      </trkpt>
      <trkpt lat="43.4831" lon="6.33874">
        <ele>171.7</ele>
        <time>2021-12-08T14:50:41.000Z</time>
      </trkpt>
      <trkpt lat="43.48305" lon="6.33884">
        <ele>170.1</ele>
        <time>2021-12-08T14:50:50.000Z</time>
      </trkpt>
      <trkpt lat="43.48305" lon="6.33897">
        <ele>171.5</ele>
        <time>2021-12-08T14:50:59.000Z</time>
      </trkpt>
      <trkpt lat="43.48298" lon="6.33906">
        <ele>173.2</ele>
        <time>2021-12-08T14:51:58.000Z</time>
      </trkpt>
      <trkpt lat="43.48304" lon="6.33896">
        <ele>172</ele>
        <time>2021-12-08T14:52:52.000Z</time>
      </trkpt>
      <trkpt lat="43.48298" lon="6.33887">
        <ele>169.6</ele>
        <time>2021-12-08T14:53:02.000Z</time>
      </trkpt>
      <trkpt lat="43.48289" lon="6.33893">
        <ele>168.2</ele>
        <time>2021-12-08T14:53:07.000Z</time>
      </trkpt>
      <trkpt lat="43.4828" lon="6.33897">
        <ele>166.8</ele>
        <time>2021-12-08T14:53:12.000Z</time>
      </trkpt>
      <trkpt lat="43.48271" lon="6.33899">
        <ele>165.8</ele>
        <time>2021-12-08T14:53:17.000Z</time>
      </trkpt>
      <trkpt lat="43.48261" lon="6.33903">
        <ele>164.9</ele>
        <time>2021-12-08T14:53:24.000Z</time>
      </trkpt>
      <trkpt lat="43.48252" lon="6.33904">
        <ele>164</ele>
        <time>2021-12-08T14:53:32.000Z</time>
      </trkpt>
      <trkpt lat="43.48244" lon="6.3391">
        <ele>163.6</ele>
        <time>2021-12-08T14:53:41.000Z</time>
      </trkpt>
      <trkpt lat="43.48235" lon="6.33917">
        <ele>163.4</ele>
        <time>2021-12-08T14:53:49.000Z</time>
      </trkpt>
      <trkpt lat="43.48226" lon="6.33915">
        <ele>164</ele>
        <time>2021-12-08T14:54:00.000Z</time>
      </trkpt>
      <trkpt lat="43.4822" lon="6.33904">
        <ele>164</ele>
        <time>2021-12-08T14:54:10.000Z</time>
      </trkpt>
      <trkpt lat="43.48213" lon="6.33894">
        <ele>164.2</ele>
        <time>2021-12-08T14:54:18.000Z</time>
      </trkpt>
      <trkpt lat="43.48223" lon="6.33896">
        <ele>160.6</ele>
        <time>2021-12-08T14:54:54.000Z</time>
      </trkpt>
      <trkpt lat="43.4823" lon="6.33888">
        <ele>158.7</ele>
        <time>2021-12-08T14:55:04.000Z</time>
      </trkpt>
      <trkpt lat="43.48233" lon="6.33876">
        <ele>156.4</ele>
        <time>2021-12-08T14:55:15.000Z</time>
      </trkpt>
      <trkpt lat="43.48235" lon="6.33863">
        <ele>154.5</ele>
        <time>2021-12-08T14:55:25.000Z</time>
      </trkpt>
      <trkpt lat="43.48233" lon="6.3385">
        <ele>153</ele>
        <time>2021-12-08T14:55:34.000Z</time>
      </trkpt>
      <trkpt lat="43.48227" lon="6.33839">
        <ele>150.7</ele>
        <time>2021-12-08T14:55:45.000Z</time>
      </trkpt>
      <trkpt lat="43.48221" lon="6.3383">
        <ele>149.6</ele>
        <time>2021-12-08T14:55:54.000Z</time>
      </trkpt>
      <trkpt lat="43.48212" lon="6.33821">
        <ele>148.8</ele>
        <time>2021-12-08T14:56:01.000Z</time>
      </trkpt>
      <trkpt lat="43.48205" lon="6.33814">
        <ele>147.4</ele>
        <time>2021-12-08T14:56:09.000Z</time>
      </trkpt>
      <trkpt lat="43.48196" lon="6.33805">
        <ele>146.5</ele>
        <time>2021-12-08T14:56:17.000Z</time>
      </trkpt>
      <trkpt lat="43.48188" lon="6.338">
        <ele>145.4</ele>
        <time>2021-12-08T14:56:25.000Z</time>
      </trkpt>
      <trkpt lat="43.48196" lon="6.33793">
        <ele>141.9</ele>
        <time>2021-12-08T14:56:47.000Z</time>
      </trkpt>
      <trkpt lat="43.48206" lon="6.33791">
        <ele>140</ele>
        <time>2021-12-08T14:56:57.000Z</time>
      </trkpt>
      <trkpt lat="43.48215" lon="6.33791">
        <ele>137.9</ele>
        <time>2021-12-08T14:57:08.000Z</time>
      </trkpt>
      <trkpt lat="43.48223" lon="6.33784">
        <ele>136.8</ele>
        <time>2021-12-08T14:57:16.000Z</time>
      </trkpt>
      <trkpt lat="43.48218" lon="6.33773">
        <ele>134.2</ele>
        <time>2021-12-08T14:57:33.000Z</time>
      </trkpt>
      <trkpt lat="43.48212" lon="6.33764">
        <ele>132.6</ele>
        <time>2021-12-08T14:57:43.000Z</time>
      </trkpt>
      <trkpt lat="43.4821" lon="6.33751">
        <ele>130.4</ele>
        <time>2021-12-08T14:57:54.000Z</time>
      </trkpt>
      <trkpt lat="43.48211" lon="6.33738">
        <ele>128.8</ele>
        <time>2021-12-08T14:58:05.000Z</time>
      </trkpt>
      <trkpt lat="43.48216" lon="6.33727">
        <ele>128.1</ele>
        <time>2021-12-08T14:58:14.000Z</time>
      </trkpt>
      <trkpt lat="43.48221" lon="6.33715">
        <ele>127.5</ele>
        <time>2021-12-08T14:58:22.000Z</time>
      </trkpt>
      <trkpt lat="43.48223" lon="6.33703">
        <ele>127.1</ele>
        <time>2021-12-08T14:58:30.000Z</time>
      </trkpt>
      <trkpt lat="43.48226" lon="6.3369">
        <ele>127.3</ele>
        <time>2021-12-08T14:58:39.000Z</time>
      </trkpt>
      <trkpt lat="43.48228" lon="6.33677">
        <ele>127.4</ele>
        <time>2021-12-08T14:58:48.000Z</time>
      </trkpt>
      <trkpt lat="43.48231" lon="6.33665">
        <ele>127.6</ele>
        <time>2021-12-08T14:58:56.000Z</time>
      </trkpt>
      <trkpt lat="43.48233" lon="6.33652">
        <ele>127.1</ele>
        <time>2021-12-08T14:59:04.000Z</time>
      </trkpt>
      <trkpt lat="43.48236" lon="6.33639">
        <ele>126.3</ele>
        <time>2021-12-08T14:59:13.000Z</time>
      </trkpt>
      <trkpt lat="43.48239" lon="6.33628">
        <ele>126.2</ele>
        <time>2021-12-08T14:59:21.000Z</time>
      </trkpt>
      <trkpt lat="43.48243" lon="6.33616">
        <ele>126.2</ele>
        <time>2021-12-08T14:59:30.000Z</time>
      </trkpt>
      <trkpt lat="43.48243" lon="6.33603">
        <ele>126.4</ele>
        <time>2021-12-08T14:59:48.000Z</time>
      </trkpt>
      <trkpt lat="43.48253" lon="6.33598">
        <ele>126.2</ele>
        <time>2021-12-08T14:59:58.000Z</time>
      </trkpt>
      <trkpt lat="43.48247" lon="6.33588">
        <ele>126.4</ele>
        <time>2021-12-08T15:00:04.000Z</time>
      </trkpt>
      <trkpt lat="43.48249" lon="6.33576">
        <ele>126.6</ele>
        <time>2021-12-08T15:01:42.000Z</time>
      </trkpt>
      <trkpt lat="43.48258" lon="6.33572">
        <ele>126.5</ele>
        <time>2021-12-08T15:01:50.000Z</time>
      </trkpt>
      <trkpt lat="43.48264" lon="6.33563">
        <ele>126.8</ele>
        <time>2021-12-08T15:02:03.000Z</time>
      </trkpt>
      <trkpt lat="43.48273" lon="6.33556">
        <ele>126.7</ele>
        <time>2021-12-08T15:02:16.000Z</time>
      </trkpt>
      <trkpt lat="43.48281" lon="6.33551">
        <ele>127.1</ele>
        <time>2021-12-08T15:02:28.000Z</time>
      </trkpt>
      <trkpt lat="43.48292" lon="6.33549">
        <ele>127</ele>
        <time>2021-12-08T15:02:37.000Z</time>
      </trkpt>
      <trkpt lat="43.48301" lon="6.33547">
        <ele>128.3</ele>
        <time>2021-12-08T15:02:45.000Z</time>
      </trkpt>
      <trkpt lat="43.48309" lon="6.33541">
        <ele>128.2</ele>
        <time>2021-12-08T15:02:56.000Z</time>
      </trkpt>
      <trkpt lat="43.48318" lon="6.33538">
        <ele>128.3</ele>
        <time>2021-12-08T15:03:04.000Z</time>
      </trkpt>
      <trkpt lat="43.48328" lon="6.33539">
        <ele>128.4</ele>
        <time>2021-12-08T15:03:09.000Z</time>
      </trkpt>
      <trkpt lat="43.48337" lon="6.33543">
        <ele>128.4</ele>
        <time>2021-12-08T15:03:15.000Z</time>
      </trkpt>
      <trkpt lat="43.48347" lon="6.33547">
        <ele>128.8</ele>
        <time>2021-12-08T15:03:22.000Z</time>
      </trkpt>
      <trkpt lat="43.48355" lon="6.33551">
        <ele>129.6</ele>
        <time>2021-12-08T15:03:30.000Z</time>
      </trkpt>
      <trkpt lat="43.48363" lon="6.33558">
        <ele>130</ele>
        <time>2021-12-08T15:03:38.000Z</time>
      </trkpt>
      <trkpt lat="43.48369" lon="6.33568">
        <ele>130.8</ele>
        <time>2021-12-08T15:03:49.000Z</time>
      </trkpt>
      <trkpt lat="43.48376" lon="6.33576">
        <ele>131.5</ele>
        <time>2021-12-08T15:03:59.000Z</time>
      </trkpt>
      <trkpt lat="43.48383" lon="6.33584">
        <ele>131.8</ele>
        <time>2021-12-08T15:04:07.000Z</time>
      </trkpt>
      <trkpt lat="43.4839" lon="6.33594">
        <ele>131.9</ele>
        <time>2021-12-08T15:04:15.000Z</time>
      </trkpt>
      <trkpt lat="43.48396" lon="6.33603">
        <ele>132.1</ele>
        <time>2021-12-08T15:04:22.000Z</time>
      </trkpt>
      <trkpt lat="43.48403" lon="6.33613">
        <ele>132.4</ele>
        <time>2021-12-08T15:04:31.000Z</time>
      </trkpt>
      <trkpt lat="43.48409" lon="6.33623">
        <ele>132.4</ele>
        <time>2021-12-08T15:04:38.000Z</time>
      </trkpt>
      <trkpt lat="43.48415" lon="6.33633">
        <ele>132.7</ele>
        <time>2021-12-08T15:04:47.000Z</time>
      </trkpt>
      <trkpt lat="43.48422" lon="6.33641">
        <ele>133.1</ele>
        <time>2021-12-08T15:04:54.000Z</time>
      </trkpt>
      <trkpt lat="43.48428" lon="6.33651">
        <ele>133.3</ele>
        <time>2021-12-08T15:05:02.000Z</time>
      </trkpt>
      <trkpt lat="43.48436" lon="6.3366">
        <ele>133.3</ele>
        <time>2021-12-08T15:05:09.000Z</time>
      </trkpt>
      <trkpt lat="43.48443" lon="6.33668">
        <ele>133.6</ele>
        <time>2021-12-08T15:05:16.000Z</time>
      </trkpt>
      <trkpt lat="43.4845" lon="6.33675">
        <ele>133.8</ele>
        <time>2021-12-08T15:05:23.000Z</time>
      </trkpt>
      <trkpt lat="43.48458" lon="6.33684">
        <ele>134.1</ele>
        <time>2021-12-08T15:05:31.000Z</time>
      </trkpt>
      <trkpt lat="43.48467" lon="6.33687">
        <ele>134.5</ele>
        <time>2021-12-08T15:05:40.000Z</time>
      </trkpt>
      <trkpt lat="43.48476" lon="6.33692">
        <ele>134.6</ele>
        <time>2021-12-08T15:06:51.000Z</time>
      </trkpt>
      <trkpt lat="43.48474" lon="6.33705">
        <ele>134.9</ele>
        <time>2021-12-08T15:06:59.000Z</time>
      </trkpt>
      <trkpt lat="43.48472" lon="6.33718">
        <ele>135.2</ele>
        <time>2021-12-08T15:07:05.000Z</time>
      </trkpt>
      <trkpt lat="43.48473" lon="6.33732">
        <ele>135.7</ele>
        <time>2021-12-08T15:07:13.000Z</time>
      </trkpt>
      <trkpt lat="43.48473" lon="6.33719">
        <ele>135.8</ele>
        <time>2021-12-08T15:07:33.000Z</time>
      </trkpt>
      <trkpt lat="43.48475" lon="6.33704">
        <ele>135.4</ele>
        <time>2021-12-08T15:07:38.000Z</time>
      </trkpt>
      <trkpt lat="43.48485" lon="6.33701">
        <ele>134.6</ele>
        <time>2021-12-08T15:07:47.000Z</time>
      </trkpt>
      <trkpt lat="43.48493" lon="6.33698">
        <ele>134.3</ele>
        <time>2021-12-08T15:07:56.000Z</time>
      </trkpt>
      <trkpt lat="43.48503" lon="6.33698">
        <ele>134.5</ele>
        <time>2021-12-08T15:08:03.000Z</time>
      </trkpt>
      <trkpt lat="43.48513" lon="6.33701">
        <ele>134.7</ele>
        <time>2021-12-08T15:08:12.000Z</time>
      </trkpt>
      <trkpt lat="43.48522" lon="6.33706">
        <ele>135</ele>
        <time>2021-12-08T15:08:20.000Z</time>
      </trkpt>
      <trkpt lat="43.4853" lon="6.33712">
        <ele>135.1</ele>
        <time>2021-12-08T15:08:27.000Z</time>
      </trkpt>
      <trkpt lat="43.48537" lon="6.3372">
        <ele>135.4</ele>
        <time>2021-12-08T15:08:35.000Z</time>
      </trkpt>
      <trkpt lat="43.48545" lon="6.33726">
        <ele>135.5</ele>
        <time>2021-12-08T15:08:42.000Z</time>
      </trkpt>
      <trkpt lat="43.48554" lon="6.33725">
        <ele>136.5</ele>
        <time>2021-12-08T15:09:21.000Z</time>
      </trkpt>
      <trkpt lat="43.48564" lon="6.33727">
        <ele>136.4</ele>
        <time>2021-12-08T15:09:28.000Z</time>
      </trkpt>
      <trkpt lat="43.48573" lon="6.33726">
        <ele>136.1</ele>
        <time>2021-12-08T15:09:36.000Z</time>
      </trkpt>
      <trkpt lat="43.48582" lon="6.33728">
        <ele>136.3</ele>
        <time>2021-12-08T15:09:44.000Z</time>
      </trkpt>
      <trkpt lat="43.48592" lon="6.33728">
        <ele>136.1</ele>
        <time>2021-12-08T15:09:52.000Z</time>
      </trkpt>
      <trkpt lat="43.48601" lon="6.33728">
        <ele>136.6</ele>
        <time>2021-12-08T15:10:01.000Z</time>
      </trkpt>
      <trkpt lat="43.48607" lon="6.33717">
        <ele>136.7</ele>
        <time>2021-12-08T15:10:09.000Z</time>
      </trkpt>
      <trkpt lat="43.48609" lon="6.33703">
        <ele>137</ele>
        <time>2021-12-08T15:10:18.000Z</time>
      </trkpt>
      <trkpt lat="43.48605" lon="6.33691">
        <ele>137.2</ele>
        <time>2021-12-08T15:10:28.000Z</time>
      </trkpt>
      <trkpt lat="43.486" lon="6.33681">
        <ele>137.6</ele>
        <time>2021-12-08T15:10:37.000Z</time>
      </trkpt>
      <trkpt lat="43.48593" lon="6.33672">
        <ele>137.6</ele>
        <time>2021-12-08T15:10:47.000Z</time>
      </trkpt>
      <trkpt lat="43.48586" lon="6.33663">
        <ele>138</ele>
        <time>2021-12-08T15:10:56.000Z</time>
      </trkpt>
      <trkpt lat="43.48578" lon="6.33654">
        <ele>138.8</ele>
        <time>2021-12-08T15:11:05.000Z</time>
      </trkpt>
      <trkpt lat="43.48571" lon="6.33646">
        <ele>139.4</ele>
        <time>2021-12-08T15:11:15.000Z</time>
      </trkpt>
      <trkpt lat="43.48562" lon="6.3364">
        <ele>140.7</ele>
        <time>2021-12-08T15:11:22.000Z</time>
      </trkpt>
      <trkpt lat="43.48554" lon="6.33633">
        <ele>141.8</ele>
        <time>2021-12-08T15:11:32.000Z</time>
      </trkpt>
      <trkpt lat="43.48547" lon="6.33622">
        <ele>141.5</ele>
        <time>2021-12-08T15:11:41.000Z</time>
      </trkpt>
      <trkpt lat="43.48541" lon="6.33612">
        <ele>140.9</ele>
        <time>2021-12-08T15:11:48.000Z</time>
      </trkpt>
      <trkpt lat="43.48535" lon="6.33602">
        <ele>140.4</ele>
        <time>2021-12-08T15:11:55.000Z</time>
      </trkpt>
      <trkpt lat="43.4853" lon="6.3359">
        <ele>140.2</ele>
        <time>2021-12-08T15:12:04.000Z</time>
      </trkpt>
      <trkpt lat="43.48526" lon="6.33579">
        <ele>140.1</ele>
        <time>2021-12-08T15:12:12.000Z</time>
      </trkpt>
      <trkpt lat="43.48522" lon="6.33565">
        <ele>140.1</ele>
        <time>2021-12-08T15:12:21.000Z</time>
      </trkpt>
      <trkpt lat="43.48516" lon="6.33555">
        <ele>140.3</ele>
        <time>2021-12-08T15:12:29.000Z</time>
      </trkpt>
      <trkpt lat="43.48513" lon="6.33544">
        <ele>141</ele>
        <time>2021-12-08T15:12:38.000Z</time>
      </trkpt>
      <trkpt lat="43.48507" lon="6.33534">
        <ele>141.5</ele>
        <time>2021-12-08T15:12:45.000Z</time>
      </trkpt>
      <trkpt lat="43.48503" lon="6.33522">
        <ele>142.3</ele>
        <time>2021-12-08T15:12:53.000Z</time>
      </trkpt>
      <trkpt lat="43.48498" lon="6.3351">
        <ele>143.4</ele>
        <time>2021-12-08T15:13:05.000Z</time>
      </trkpt>
      <trkpt lat="43.48494" lon="6.33498">
        <ele>144.4</ele>
        <time>2021-12-08T15:13:13.000Z</time>
      </trkpt>
      <trkpt lat="43.48491" lon="6.33486">
        <ele>145.2</ele>
        <time>2021-12-08T15:13:23.000Z</time>
      </trkpt>
      <trkpt lat="43.48491" lon="6.33472">
        <ele>145.2</ele>
        <time>2021-12-08T15:13:32.000Z</time>
      </trkpt>
      <trkpt lat="43.48489" lon="6.3346">
        <ele>144.8</ele>
        <time>2021-12-08T15:13:40.000Z</time>
      </trkpt>
      <trkpt lat="43.48492" lon="6.33447">
        <ele>144.1</ele>
        <time>2021-12-08T15:13:49.000Z</time>
      </trkpt>
      <trkpt lat="43.48492" lon="6.33434">
        <ele>142.6</ele>
        <time>2021-12-08T15:14:00.000Z</time>
      </trkpt>
      <trkpt lat="43.48492" lon="6.3342">
        <ele>142.4</ele>
        <time>2021-12-08T15:14:08.000Z</time>
      </trkpt>
      <trkpt lat="43.48495" lon="6.33407">
        <ele>142.3</ele>
        <time>2021-12-08T15:14:16.000Z</time>
      </trkpt>
      <trkpt lat="43.48496" lon="6.33394">
        <ele>142.4</ele>
        <time>2021-12-08T15:14:24.000Z</time>
      </trkpt>
      <trkpt lat="43.48497" lon="6.3338">
        <ele>142.8</ele>
        <time>2021-12-08T15:14:32.000Z</time>
      </trkpt>
      <trkpt lat="43.48494" lon="6.33367">
        <ele>143</ele>
        <time>2021-12-08T15:14:40.000Z</time>
      </trkpt>
      <trkpt lat="43.48489" lon="6.33355">
        <ele>143.6</ele>
        <time>2021-12-08T15:14:48.000Z</time>
      </trkpt>
      <trkpt lat="43.48484" lon="6.33344">
        <ele>144</ele>
        <time>2021-12-08T15:14:56.000Z</time>
      </trkpt>
      <trkpt lat="43.48477" lon="6.33336">
        <ele>144.5</ele>
        <time>2021-12-08T15:15:05.000Z</time>
      </trkpt>
      <trkpt lat="43.48468" lon="6.33337">
        <ele>145.1</ele>
        <time>2021-12-08T15:15:11.000Z</time>
      </trkpt>
      <trkpt lat="43.48458" lon="6.33338">
        <ele>145.5</ele>
        <time>2021-12-08T15:15:19.000Z</time>
      </trkpt>
      <trkpt lat="43.4845" lon="6.33345">
        <ele>145.9</ele>
        <time>2021-12-08T15:15:28.000Z</time>
      </trkpt>
      <trkpt lat="43.48453" lon="6.33333">
        <ele>146.6</ele>
        <time>2021-12-08T15:16:06.000Z</time>
      </trkpt>
      <trkpt lat="43.48456" lon="6.33321">
        <ele>147.6</ele>
        <time>2021-12-08T15:16:14.000Z</time>
      </trkpt>
      <trkpt lat="43.48461" lon="6.3331">
        <ele>148.8</ele>
        <time>2021-12-08T15:16:23.000Z</time>
      </trkpt>
      <trkpt lat="43.48463" lon="6.33297">
        <ele>150.1</ele>
        <time>2021-12-08T15:16:33.000Z</time>
      </trkpt>
      <trkpt lat="43.48465" lon="6.33283">
        <ele>150.7</ele>
        <time>2021-12-08T15:16:41.000Z</time>
      </trkpt>
      <trkpt lat="43.48463" lon="6.33271">
        <ele>151.7</ele>
        <time>2021-12-08T15:16:49.000Z</time>
      </trkpt>
      <trkpt lat="43.48461" lon="6.33257">
        <ele>152.2</ele>
        <time>2021-12-08T15:16:58.000Z</time>
      </trkpt>
      <trkpt lat="43.48459" lon="6.33244">
        <ele>153.3</ele>
        <time>2021-12-08T15:17:07.000Z</time>
      </trkpt>
      <trkpt lat="43.48457" lon="6.33231">
        <ele>153.9</ele>
        <time>2021-12-08T15:17:15.000Z</time>
      </trkpt>
      <trkpt lat="43.48457" lon="6.33218">
        <ele>154.8</ele>
        <time>2021-12-08T15:17:24.000Z</time>
      </trkpt>
      <trkpt lat="43.48454" lon="6.33205">
        <ele>155.5</ele>
        <time>2021-12-08T15:17:33.000Z</time>
      </trkpt>
      <trkpt lat="43.4845" lon="6.33194">
        <ele>155.9</ele>
        <time>2021-12-08T15:17:41.000Z</time>
      </trkpt>
      <trkpt lat="43.48447" lon="6.33181">
        <ele>156.7</ele>
        <time>2021-12-08T15:17:49.000Z</time>
      </trkpt>
      <trkpt lat="43.48444" lon="6.3317">
        <ele>157.3</ele>
        <time>2021-12-08T15:18:00.000Z</time>
      </trkpt>
      <trkpt lat="43.4844" lon="6.33158">
        <ele>157.7</ele>
        <time>2021-12-08T15:18:11.000Z</time>
      </trkpt>
      <trkpt lat="43.48437" lon="6.33146">
        <ele>159.1</ele>
        <time>2021-12-08T15:18:25.000Z</time>
      </trkpt>
      <trkpt lat="43.48434" lon="6.33134">
        <ele>159.6</ele>
        <time>2021-12-08T15:18:34.000Z</time>
      </trkpt>
      <trkpt lat="43.48432" lon="6.33121">
        <ele>160.2</ele>
        <time>2021-12-08T15:18:43.000Z</time>
      </trkpt>
      <trkpt lat="43.48431" lon="6.33108">
        <ele>161</ele>
        <time>2021-12-08T15:18:52.000Z</time>
      </trkpt>
      <trkpt lat="43.48423" lon="6.33099">
        <ele>161.4</ele>
        <time>2021-12-08T15:19:24.000Z</time>
      </trkpt>
      <trkpt lat="43.48414" lon="6.33095">
        <ele>161.8</ele>
        <time>2021-12-08T15:19:42.000Z</time>
      </trkpt>
      <trkpt lat="43.48405" lon="6.33095">
        <ele>161.7</ele>
        <time>2021-12-08T15:19:52.000Z</time>
      </trkpt>
      <trkpt lat="43.48396" lon="6.33094">
        <ele>161.7</ele>
        <time>2021-12-08T15:20:01.000Z</time>
      </trkpt>
      <trkpt lat="43.48387" lon="6.33093">
        <ele>161.5</ele>
        <time>2021-12-08T15:20:11.000Z</time>
      </trkpt>
      <trkpt lat="43.48377" lon="6.33093">
        <ele>161.2</ele>
        <time>2021-12-08T15:20:20.000Z</time>
      </trkpt>
      <trkpt lat="43.48367" lon="6.33093">
        <ele>160.9</ele>
        <time>2021-12-08T15:20:29.000Z</time>
      </trkpt>
      <trkpt lat="43.48357" lon="6.33093">
        <ele>160.5</ele>
        <time>2021-12-08T15:20:39.000Z</time>
      </trkpt>
      <trkpt lat="43.48348" lon="6.33095">
        <ele>159.7</ele>
        <time>2021-12-08T15:20:48.000Z</time>
      </trkpt>
      <trkpt lat="43.48338" lon="6.33095">
        <ele>159.1</ele>
        <time>2021-12-08T15:20:56.000Z</time>
      </trkpt>
      <trkpt lat="43.48329" lon="6.33094">
        <ele>158.7</ele>
        <time>2021-12-08T15:21:03.000Z</time>
      </trkpt>
      <trkpt lat="43.4832" lon="6.33095">
        <ele>157.6</ele>
        <time>2021-12-08T15:21:10.000Z</time>
      </trkpt>
      <trkpt lat="43.4831" lon="6.33095">
        <ele>157.1</ele>
        <time>2021-12-08T15:21:17.000Z</time>
      </trkpt>
      <trkpt lat="43.483" lon="6.33096">
        <ele>156.8</ele>
        <time>2021-12-08T15:21:25.000Z</time>
      </trkpt>
      <trkpt lat="43.48291" lon="6.33096">
        <ele>156.4</ele>
        <time>2021-12-08T15:21:34.000Z</time>
      </trkpt>
      <trkpt lat="43.48281" lon="6.33099">
        <ele>155.9</ele>
        <time>2021-12-08T15:21:49.000Z</time>
      </trkpt>
      <trkpt lat="43.48271" lon="6.33101">
        <ele>155.1</ele>
        <time>2021-12-08T15:21:58.000Z</time>
      </trkpt>
      <trkpt lat="43.48261" lon="6.33102">
        <ele>154.1</ele>
        <time>2021-12-08T15:22:06.000Z</time>
      </trkpt>
      <trkpt lat="43.48252" lon="6.33103">
        <ele>153</ele>
        <time>2021-12-08T15:22:14.000Z</time>
      </trkpt>
      <trkpt lat="43.48242" lon="6.33102">
        <ele>152.4</ele>
        <time>2021-12-08T15:22:23.000Z</time>
      </trkpt>
      <trkpt lat="43.48233" lon="6.33104">
        <ele>151.3</ele>
        <time>2021-12-08T15:22:31.000Z</time>
      </trkpt>
      <trkpt lat="43.48223" lon="6.33104">
        <ele>150.7</ele>
        <time>2021-12-08T15:22:39.000Z</time>
      </trkpt>
      <trkpt lat="43.48213" lon="6.33103">
        <ele>150.4</ele>
        <time>2021-12-08T15:22:47.000Z</time>
      </trkpt>
      <trkpt lat="43.48205" lon="6.33096">
        <ele>149.8</ele>
        <time>2021-12-08T15:22:55.000Z</time>
      </trkpt>
      <trkpt lat="43.48197" lon="6.33087">
        <ele>149.1</ele>
        <time>2021-12-08T15:23:02.000Z</time>
      </trkpt>
      <trkpt lat="43.4819" lon="6.33079">
        <ele>148.7</ele>
        <time>2021-12-08T15:23:09.000Z</time>
      </trkpt>
      <trkpt lat="43.48182" lon="6.33069">
        <ele>147.4</ele>
        <time>2021-12-08T15:23:20.000Z</time>
      </trkpt>
      <trkpt lat="43.48179" lon="6.33057">
        <ele>147.2</ele>
        <time>2021-12-08T15:23:28.000Z</time>
      </trkpt>
      <trkpt lat="43.48175" lon="6.33045">
        <ele>146.8</ele>
        <time>2021-12-08T15:23:37.000Z</time>
      </trkpt>
      <trkpt lat="43.48172" lon="6.33032">
        <ele>146.4</ele>
        <time>2021-12-08T15:23:45.000Z</time>
      </trkpt>
      <trkpt lat="43.48169" lon="6.33019">
        <ele>146.1</ele>
        <time>2021-12-08T15:23:53.000Z</time>
      </trkpt>
      <trkpt lat="43.48166" lon="6.33008">
        <ele>146.1</ele>
        <time>2021-12-08T15:24:00.000Z</time>
      </trkpt>
      <trkpt lat="43.48164" lon="6.32994">
        <ele>146</ele>
        <time>2021-12-08T15:24:08.000Z</time>
      </trkpt>
      <trkpt lat="43.48161" lon="6.32982">
        <ele>146.1</ele>
        <time>2021-12-08T15:24:15.000Z</time>
      </trkpt>
      <trkpt lat="43.48157" lon="6.32969">
        <ele>146.6</ele>
        <time>2021-12-08T15:24:28.000Z</time>
      </trkpt>
      <trkpt lat="43.48153" lon="6.32957">
        <ele>147.1</ele>
        <time>2021-12-08T15:24:35.000Z</time>
      </trkpt>
      <trkpt lat="43.48151" lon="6.32945">
        <ele>147.4</ele>
        <time>2021-12-08T15:24:43.000Z</time>
      </trkpt>
      <trkpt lat="43.48149" lon="6.32932">
        <ele>147.8</ele>
        <time>2021-12-08T15:24:51.000Z</time>
      </trkpt>
      <trkpt lat="43.48148" lon="6.32918">
        <ele>147.6</ele>
        <time>2021-12-08T15:24:59.000Z</time>
      </trkpt>
      <trkpt lat="43.48145" lon="6.32905">
        <ele>147.8</ele>
        <time>2021-12-08T15:25:08.000Z</time>
      </trkpt>
      <trkpt lat="43.48143" lon="6.32892">
        <ele>148.1</ele>
        <time>2021-12-08T15:25:17.000Z</time>
      </trkpt>
      <trkpt lat="43.48142" lon="6.32879">
        <ele>148.7</ele>
        <time>2021-12-08T15:25:24.000Z</time>
      </trkpt>
      <trkpt lat="43.48141" lon="6.32867">
        <ele>148.7</ele>
        <time>2021-12-08T15:25:33.000Z</time>
      </trkpt>
      <trkpt lat="43.4814" lon="6.32854">
        <ele>149.1</ele>
        <time>2021-12-08T15:26:18.000Z</time>
      </trkpt>
      <trkpt lat="43.48146" lon="6.32853">
        <ele>148.6</ele>
        <time>2021-12-08T15:27:02.000Z</time>
      </trkpt>
    </trkseg>
  </trk>
</gpx>